<?xml version="1.0" encoding="UTF-8" standalone="no" ?>
<gpx xmlns="http://www.topografix.com/GPX/1/1" xmlns:xsi="http://www.w3.org/2001/XMLSchema-instance" xsi:schemaLocation="http://www.topografix.com/GPX/1/1 http://www.topografix.com/GPX/1/1/gpx.xsd" version="1.1" creator="VisuGPX - https://www.visugpx.com">
  <metadata>
    <name>Bonnieux - Les Claparèdes</name>
    <desc><![CDATA[Balade autour de Bonnieux et retour par le GR de pays]]></desc>
  </metadata>
  <trk>
    <name><![CDATA[2021-03-29 14-10-29]]></name>
    <trkseg>
      <trkpt lat="43.82093" lon="5.30948">
        <ele>309.2</ele>
        <time>2021-03-29T07:24:25Z</time>
      </trkpt>
      <trkpt lat="43.82088" lon="5.30939">
        <ele>309.2</ele>
        <time>2021-03-29T07:24:52Z</time>
      </trkpt>
      <trkpt lat="43.82054" lon="5.30926">
        <ele>308.24</ele>
        <time>2021-03-29T07:25:14Z</time>
      </trkpt>
      <trkpt lat="43.82054" lon="5.30913">
        <ele>308.24</ele>
        <time>2021-03-29T07:26:25Z</time>
      </trkpt>
      <trkpt lat="43.82056" lon="5.30912">
        <ele>308.72</ele>
        <time>2021-03-29T07:27:39Z</time>
      </trkpt>
      <trkpt lat="43.82055" lon="5.30912">
        <ele>308.72</ele>
        <time>2021-03-29T07:29:15Z</time>
      </trkpt>
      <trkpt lat="43.82055" lon="5.30912">
        <ele>308.72</ele>
        <time>2021-03-29T07:30:48Z</time>
      </trkpt>
      <trkpt lat="43.82054" lon="5.30911">
        <ele>308.72</ele>
        <time>2021-03-29T07:32:28Z</time>
      </trkpt>
      <trkpt lat="43.82056" lon="5.30914">
        <ele>308.72</ele>
        <time>2021-03-29T07:34:08Z</time>
      </trkpt>
      <trkpt lat="43.82061" lon="5.30918">
        <ele>308.72</ele>
        <time>2021-03-29T07:34:53Z</time>
      </trkpt>
      <trkpt lat="43.8206" lon="5.30917">
        <ele>308.72</ele>
        <time>2021-03-29T07:35:32Z</time>
      </trkpt>
      <trkpt lat="43.82045" lon="5.30904">
        <ele>308.72</ele>
        <time>2021-03-29T07:35:51Z</time>
      </trkpt>
      <trkpt lat="43.82046" lon="5.30905">
        <ele>308.72</ele>
        <time>2021-03-29T07:36:19Z</time>
      </trkpt>
      <trkpt lat="43.82047" lon="5.3091">
        <ele>308.72</ele>
        <time>2021-03-29T07:36:46Z</time>
      </trkpt>
      <trkpt lat="43.82046" lon="5.30912">
        <ele>308.72</ele>
        <time>2021-03-29T07:37:21Z</time>
      </trkpt>
      <trkpt lat="43.82043" lon="5.30912">
        <ele>308.72</ele>
        <time>2021-03-29T07:37:55Z</time>
      </trkpt>
      <trkpt lat="43.82042" lon="5.30914">
        <ele>308.72</ele>
        <time>2021-03-29T07:38:25Z</time>
      </trkpt>
      <trkpt lat="43.8204" lon="5.30911">
        <ele>308.72</ele>
        <time>2021-03-29T07:38:57Z</time>
      </trkpt>
      <trkpt lat="43.82041" lon="5.3091">
        <ele>308.72</ele>
        <time>2021-03-29T07:39:24Z</time>
      </trkpt>
      <trkpt lat="43.82042" lon="5.30912">
        <ele>308.72</ele>
        <time>2021-03-29T07:39:54Z</time>
      </trkpt>
      <trkpt lat="43.82041" lon="5.3091">
        <ele>308.72</ele>
        <time>2021-03-29T07:40:18Z</time>
      </trkpt>
      <trkpt lat="43.82038" lon="5.30909">
        <ele>308.72</ele>
        <time>2021-03-29T07:40:47Z</time>
      </trkpt>
      <trkpt lat="43.82047" lon="5.30901">
        <ele>308.72</ele>
        <time>2021-03-29T07:41:07Z</time>
      </trkpt>
      <trkpt lat="43.82059" lon="5.30911">
        <ele>309.2</ele>
        <time>2021-03-29T07:41:29Z</time>
      </trkpt>
      <trkpt lat="43.82045" lon="5.30925">
        <ele>311.12</ele>
        <time>2021-03-29T07:41:47Z</time>
      </trkpt>
      <trkpt lat="43.82034" lon="5.30924">
        <ele>311.6</ele>
        <time>2021-03-29T07:41:58Z</time>
      </trkpt>
      <trkpt lat="43.82021" lon="5.3093">
        <ele>312.09</ele>
        <time>2021-03-29T07:42:11Z</time>
      </trkpt>
      <trkpt lat="43.82001" lon="5.30941">
        <ele>313.05</ele>
        <time>2021-03-29T07:42:31Z</time>
      </trkpt>
      <trkpt lat="43.82" lon="5.30942">
        <ele>313.05</ele>
        <time>2021-03-29T07:42:32Z</time>
      </trkpt>
      <trkpt lat="43.81999" lon="5.30944">
        <ele>313.05</ele>
        <time>2021-03-29T07:42:33Z</time>
      </trkpt>
      <trkpt lat="43.81992" lon="5.30972">
        <ele>316.41</ele>
        <time>2021-03-29T07:42:53Z</time>
      </trkpt>
      <trkpt lat="43.81983" lon="5.3098">
        <ele>317.37</ele>
        <time>2021-03-29T07:43:03Z</time>
      </trkpt>
      <trkpt lat="43.81963" lon="5.31005">
        <ele>319.3</ele>
        <time>2021-03-29T07:43:28Z</time>
      </trkpt>
      <trkpt lat="43.8195" lon="5.31016">
        <ele>320.26</ele>
        <time>2021-03-29T07:43:44Z</time>
      </trkpt>
      <trkpt lat="43.81934" lon="5.31045">
        <ele>322.18</ele>
        <time>2021-03-29T07:44:10Z</time>
      </trkpt>
      <trkpt lat="43.81932" lon="5.31057">
        <ele>322.66</ele>
        <time>2021-03-29T07:44:22Z</time>
      </trkpt>
      <trkpt lat="43.81932" lon="5.31059">
        <ele>322.66</ele>
        <time>2021-03-29T07:44:23Z</time>
      </trkpt>
      <trkpt lat="43.81915" lon="5.31079">
        <ele>324.1</ele>
        <time>2021-03-29T07:44:43Z</time>
      </trkpt>
      <trkpt lat="43.81919" lon="5.31106">
        <ele>325.06</ele>
        <time>2021-03-29T07:44:59Z</time>
      </trkpt>
      <trkpt lat="43.81918" lon="5.3111">
        <ele>325.06</ele>
        <time>2021-03-29T07:45:02Z</time>
      </trkpt>
      <trkpt lat="43.81914" lon="5.31125">
        <ele>326.5</ele>
        <time>2021-03-29T07:45:17Z</time>
      </trkpt>
      <trkpt lat="43.81902" lon="5.31141">
        <ele>326.99</ele>
        <time>2021-03-29T07:45:36Z</time>
      </trkpt>
      <trkpt lat="43.81891" lon="5.31162">
        <ele>327.95</ele>
        <time>2021-03-29T07:45:57Z</time>
      </trkpt>
      <trkpt lat="43.81881" lon="5.31178">
        <ele>328.91</ele>
        <time>2021-03-29T07:46:14Z</time>
      </trkpt>
      <trkpt lat="43.81869" lon="5.31204">
        <ele>331.79</ele>
        <time>2021-03-29T07:46:38Z</time>
      </trkpt>
      <trkpt lat="43.81848" lon="5.31221">
        <ele>333.23</ele>
        <time>2021-03-29T07:47:00Z</time>
      </trkpt>
      <trkpt lat="43.81836" lon="5.31238">
        <ele>334.2</ele>
        <time>2021-03-29T07:47:15Z</time>
      </trkpt>
      <trkpt lat="43.81828" lon="5.31262">
        <ele>336.6</ele>
        <time>2021-03-29T07:47:35Z</time>
      </trkpt>
      <trkpt lat="43.81819" lon="5.31281">
        <ele>338.52</ele>
        <time>2021-03-29T07:47:56Z</time>
      </trkpt>
      <trkpt lat="43.81808" lon="5.31301">
        <ele>340.44</ele>
        <time>2021-03-29T07:48:19Z</time>
      </trkpt>
      <trkpt lat="43.81796" lon="5.31319">
        <ele>342.85</ele>
        <time>2021-03-29T07:48:37Z</time>
      </trkpt>
      <trkpt lat="43.81787" lon="5.31339">
        <ele>344.77</ele>
        <time>2021-03-29T07:48:57Z</time>
      </trkpt>
      <trkpt lat="43.81778" lon="5.31352">
        <ele>346.69</ele>
        <time>2021-03-29T07:49:14Z</time>
      </trkpt>
      <trkpt lat="43.8177" lon="5.31361">
        <ele>348.62</ele>
        <time>2021-03-29T07:49:27Z</time>
      </trkpt>
      <trkpt lat="43.81763" lon="5.31378">
        <ele>351.5</ele>
        <time>2021-03-29T07:49:48Z</time>
      </trkpt>
      <trkpt lat="43.81756" lon="5.31396">
        <ele>353.42</ele>
        <time>2021-03-29T07:50:08Z</time>
      </trkpt>
      <trkpt lat="43.81749" lon="5.31409">
        <ele>355.83</ele>
        <time>2021-03-29T07:50:22Z</time>
      </trkpt>
      <trkpt lat="43.81742" lon="5.31426">
        <ele>357.75</ele>
        <time>2021-03-29T07:50:37Z</time>
      </trkpt>
      <trkpt lat="43.81736" lon="5.31433">
        <ele>358.71</ele>
        <time>2021-03-29T07:50:44Z</time>
      </trkpt>
      <trkpt lat="43.81729" lon="5.31438">
        <ele>360.15</ele>
        <time>2021-03-29T07:51:02Z</time>
      </trkpt>
      <trkpt lat="43.81722" lon="5.31443">
        <ele>362.55</ele>
        <time>2021-03-29T07:51:16Z</time>
      </trkpt>
      <trkpt lat="43.8172" lon="5.31456">
        <ele>364.96</ele>
        <time>2021-03-29T07:51:34Z</time>
      </trkpt>
      <trkpt lat="43.81713" lon="5.31469">
        <ele>367.36</ele>
        <time>2021-03-29T07:51:51Z</time>
      </trkpt>
      <trkpt lat="43.8171" lon="5.31479">
        <ele>368.8</ele>
        <time>2021-03-29T07:52:05Z</time>
      </trkpt>
      <trkpt lat="43.81707" lon="5.31491">
        <ele>370.73</ele>
        <time>2021-03-29T07:52:21Z</time>
      </trkpt>
      <trkpt lat="43.817" lon="5.31497">
        <ele>372.65</ele>
        <time>2021-03-29T07:52:39Z</time>
      </trkpt>
      <trkpt lat="43.81695" lon="5.31505">
        <ele>375.05</ele>
        <time>2021-03-29T07:53:01Z</time>
      </trkpt>
      <trkpt lat="43.81686" lon="5.31515">
        <ele>376.97</ele>
        <time>2021-03-29T07:53:21Z</time>
      </trkpt>
      <trkpt lat="43.81676" lon="5.31524">
        <ele>380.34</ele>
        <time>2021-03-29T07:53:42Z</time>
      </trkpt>
      <trkpt lat="43.81672" lon="5.31528">
        <ele>381.3</ele>
        <time>2021-03-29T07:53:51Z</time>
      </trkpt>
      <trkpt lat="43.81671" lon="5.31529">
        <ele>381.3</ele>
        <time>2021-03-29T07:53:52Z</time>
      </trkpt>
      <trkpt lat="43.81669" lon="5.31532">
        <ele>381.78</ele>
        <time>2021-03-29T07:53:56Z</time>
      </trkpt>
      <trkpt lat="43.81656" lon="5.3155">
        <ele>384.18</ele>
        <time>2021-03-29T07:54:15Z</time>
      </trkpt>
      <trkpt lat="43.81646" lon="5.31556">
        <ele>386.59</ele>
        <time>2021-03-29T07:54:39Z</time>
      </trkpt>
      <trkpt lat="43.81641" lon="5.31557">
        <ele>387.07</ele>
        <time>2021-03-29T07:54:43Z</time>
      </trkpt>
      <trkpt lat="43.8164" lon="5.31558">
        <ele>387.07</ele>
        <time>2021-03-29T07:54:44Z</time>
      </trkpt>
      <trkpt lat="43.81627" lon="5.31568">
        <ele>389.95</ele>
        <time>2021-03-29T07:55:02Z</time>
      </trkpt>
      <trkpt lat="43.81623" lon="5.31585">
        <ele>391.87</ele>
        <time>2021-03-29T07:55:20Z</time>
      </trkpt>
      <trkpt lat="43.81619" lon="5.31598">
        <ele>393.8</ele>
        <time>2021-03-29T07:55:36Z</time>
      </trkpt>
      <trkpt lat="43.81613" lon="5.3161">
        <ele>396.2</ele>
        <time>2021-03-29T07:55:55Z</time>
      </trkpt>
      <trkpt lat="43.81607" lon="5.31627">
        <ele>398.6</ele>
        <time>2021-03-29T07:56:15Z</time>
      </trkpt>
      <trkpt lat="43.81598" lon="5.31643">
        <ele>399.57</ele>
        <time>2021-03-29T07:56:31Z</time>
      </trkpt>
      <trkpt lat="43.81594" lon="5.31649">
        <ele>400.53</ele>
        <time>2021-03-29T07:56:49Z</time>
      </trkpt>
      <trkpt lat="43.81595" lon="5.31651">
        <ele>399.57</ele>
        <time>2021-03-29T07:57:14Z</time>
      </trkpt>
      <trkpt lat="43.81597" lon="5.31651">
        <ele>399.57</ele>
        <time>2021-03-29T07:57:35Z</time>
      </trkpt>
      <trkpt lat="43.81598" lon="5.3165">
        <ele>399.57</ele>
        <time>2021-03-29T07:58:03Z</time>
      </trkpt>
      <trkpt lat="43.81596" lon="5.31649">
        <ele>396.2</ele>
        <time>2021-03-29T07:58:17Z</time>
      </trkpt>
      <trkpt lat="43.81596" lon="5.31649">
        <ele>395.72</ele>
        <time>2021-03-29T07:58:18Z</time>
      </trkpt>
      <trkpt lat="43.81596" lon="5.31649">
        <ele>399.08</ele>
        <time>2021-03-29T07:58:22Z</time>
      </trkpt>
      <trkpt lat="43.81596" lon="5.31648">
        <ele>402.93</ele>
        <time>2021-03-29T07:58:24Z</time>
      </trkpt>
      <trkpt lat="43.81599" lon="5.31649">
        <ele>401.01</ele>
        <time>2021-03-29T07:58:49Z</time>
      </trkpt>
      <trkpt lat="43.81596" lon="5.31649">
        <ele>400.53</ele>
        <time>2021-03-29T07:59:21Z</time>
      </trkpt>
      <trkpt lat="43.81599" lon="5.31652">
        <ele>400.05</ele>
        <time>2021-03-29T07:59:50Z</time>
      </trkpt>
      <trkpt lat="43.81592" lon="5.31666">
        <ele>399.08</ele>
        <time>2021-03-29T08:00:17Z</time>
      </trkpt>
      <trkpt lat="43.8159" lon="5.31669">
        <ele>401.49</ele>
        <time>2021-03-29T08:00:21Z</time>
      </trkpt>
      <trkpt lat="43.81579" lon="5.31685">
        <ele>401.01</ele>
        <time>2021-03-29T08:00:38Z</time>
      </trkpt>
      <trkpt lat="43.81569" lon="5.31706">
        <ele>401.97</ele>
        <time>2021-03-29T08:00:57Z</time>
      </trkpt>
      <trkpt lat="43.81568" lon="5.31709">
        <ele>401.97</ele>
        <time>2021-03-29T08:00:59Z</time>
      </trkpt>
      <trkpt lat="43.81558" lon="5.31728">
        <ele>403.41</ele>
        <time>2021-03-29T08:01:17Z</time>
      </trkpt>
      <trkpt lat="43.81544" lon="5.3175">
        <ele>404.37</ele>
        <time>2021-03-29T08:01:35Z</time>
      </trkpt>
      <trkpt lat="43.81531" lon="5.31771">
        <ele>406.29</ele>
        <time>2021-03-29T08:01:54Z</time>
      </trkpt>
      <trkpt lat="43.81521" lon="5.31792">
        <ele>407.74</ele>
        <time>2021-03-29T08:02:11Z</time>
      </trkpt>
      <trkpt lat="43.81502" lon="5.31812">
        <ele>410.62</ele>
        <time>2021-03-29T08:02:35Z</time>
      </trkpt>
      <trkpt lat="43.81486" lon="5.31831">
        <ele>411.58</ele>
        <time>2021-03-29T08:02:52Z</time>
      </trkpt>
      <trkpt lat="43.81477" lon="5.3185">
        <ele>413.02</ele>
        <time>2021-03-29T08:03:12Z</time>
      </trkpt>
      <trkpt lat="43.81489" lon="5.31857">
        <ele>413.02</ele>
        <time>2021-03-29T08:03:34Z</time>
      </trkpt>
      <trkpt lat="43.81511" lon="5.31865">
        <ele>411.58</ele>
        <time>2021-03-29T08:03:58Z</time>
      </trkpt>
      <trkpt lat="43.81517" lon="5.31867">
        <ele>411.1</ele>
        <time>2021-03-29T08:04:03Z</time>
      </trkpt>
      <trkpt lat="43.81533" lon="5.31872">
        <ele>410.14</ele>
        <time>2021-03-29T08:04:20Z</time>
      </trkpt>
      <trkpt lat="43.81546" lon="5.31872">
        <ele>409.18</ele>
        <time>2021-03-29T08:04:31Z</time>
      </trkpt>
      <trkpt lat="43.81547" lon="5.31872">
        <ele>409.18</ele>
        <time>2021-03-29T08:04:32Z</time>
      </trkpt>
      <trkpt lat="43.81548" lon="5.31872">
        <ele>409.18</ele>
        <time>2021-03-29T08:04:33Z</time>
      </trkpt>
      <trkpt lat="43.81549" lon="5.31871">
        <ele>409.18</ele>
        <time>2021-03-29T08:04:34Z</time>
      </trkpt>
      <trkpt lat="43.8155" lon="5.31871">
        <ele>409.18</ele>
        <time>2021-03-29T08:04:35Z</time>
      </trkpt>
      <trkpt lat="43.81566" lon="5.31874">
        <ele>408.22</ele>
        <time>2021-03-29T08:04:50Z</time>
      </trkpt>
      <trkpt lat="43.81568" lon="5.31875">
        <ele>408.22</ele>
        <time>2021-03-29T08:04:51Z</time>
      </trkpt>
      <trkpt lat="43.81582" lon="5.31883">
        <ele>406.77</ele>
        <time>2021-03-29T08:05:04Z</time>
      </trkpt>
      <trkpt lat="43.81598" lon="5.31886">
        <ele>405.81</ele>
        <time>2021-03-29T08:05:21Z</time>
      </trkpt>
      <trkpt lat="43.8162" lon="5.31882">
        <ele>404.37</ele>
        <time>2021-03-29T08:05:41Z</time>
      </trkpt>
      <trkpt lat="43.81643" lon="5.31885">
        <ele>403.41</ele>
        <time>2021-03-29T08:06:01Z</time>
      </trkpt>
      <trkpt lat="43.81654" lon="5.31909">
        <ele>402.45</ele>
        <time>2021-03-29T08:06:21Z</time>
      </trkpt>
      <trkpt lat="43.81664" lon="5.31911">
        <ele>402.45</ele>
        <time>2021-03-29T08:06:31Z</time>
      </trkpt>
      <trkpt lat="43.81679" lon="5.31896">
        <ele>402.45</ele>
        <time>2021-03-29T08:06:49Z</time>
      </trkpt>
      <trkpt lat="43.8168" lon="5.31895">
        <ele>402.45</ele>
        <time>2021-03-29T08:06:50Z</time>
      </trkpt>
      <trkpt lat="43.81683" lon="5.3189">
        <ele>402.45</ele>
        <time>2021-03-29T08:06:54Z</time>
      </trkpt>
      <trkpt lat="43.81695" lon="5.31871">
        <ele>402.45</ele>
        <time>2021-03-29T08:07:10Z</time>
      </trkpt>
      <trkpt lat="43.81711" lon="5.31863">
        <ele>402.45</ele>
        <time>2021-03-29T08:07:23Z</time>
      </trkpt>
      <trkpt lat="43.81725" lon="5.31854">
        <ele>402.93</ele>
        <time>2021-03-29T08:07:37Z</time>
      </trkpt>
      <trkpt lat="43.81739" lon="5.31844">
        <ele>403.41</ele>
        <time>2021-03-29T08:07:51Z</time>
      </trkpt>
      <trkpt lat="43.81761" lon="5.31834">
        <ele>404.37</ele>
        <time>2021-03-29T08:08:09Z</time>
      </trkpt>
      <trkpt lat="43.81765" lon="5.31834">
        <ele>404.37</ele>
        <time>2021-03-29T08:08:12Z</time>
      </trkpt>
      <trkpt lat="43.81766" lon="5.31834">
        <ele>404.37</ele>
        <time>2021-03-29T08:08:13Z</time>
      </trkpt>
      <trkpt lat="43.81786" lon="5.31837">
        <ele>405.33</ele>
        <time>2021-03-29T08:08:29Z</time>
      </trkpt>
      <trkpt lat="43.81809" lon="5.3183">
        <ele>406.29</ele>
        <time>2021-03-29T08:08:50Z</time>
      </trkpt>
      <trkpt lat="43.81833" lon="5.31819">
        <ele>407.26</ele>
        <time>2021-03-29T08:09:13Z</time>
      </trkpt>
      <trkpt lat="43.81846" lon="5.31812">
        <ele>408.22</ele>
        <time>2021-03-29T08:09:25Z</time>
      </trkpt>
      <trkpt lat="43.81847" lon="5.3181">
        <ele>408.22</ele>
        <time>2021-03-29T08:09:26Z</time>
      </trkpt>
      <trkpt lat="43.81848" lon="5.31809">
        <ele>408.22</ele>
        <time>2021-03-29T08:09:27Z</time>
      </trkpt>
      <trkpt lat="43.81864" lon="5.3179">
        <ele>408.7</ele>
        <time>2021-03-29T08:09:45Z</time>
      </trkpt>
      <trkpt lat="43.81871" lon="5.31786">
        <ele>410.62</ele>
        <time>2021-03-29T08:09:54Z</time>
      </trkpt>
      <trkpt lat="43.81876" lon="5.31784">
        <ele>409.18</ele>
        <time>2021-03-29T08:10:18Z</time>
      </trkpt>
      <trkpt lat="43.81876" lon="5.31787">
        <ele>409.18</ele>
        <time>2021-03-29T08:10:50Z</time>
      </trkpt>
      <trkpt lat="43.81881" lon="5.31787">
        <ele>409.18</ele>
        <time>2021-03-29T08:10:56Z</time>
      </trkpt>
      <trkpt lat="43.81882" lon="5.31786">
        <ele>409.18</ele>
        <time>2021-03-29T08:10:57Z</time>
      </trkpt>
      <trkpt lat="43.81883" lon="5.31785">
        <ele>409.18</ele>
        <time>2021-03-29T08:10:58Z</time>
      </trkpt>
      <trkpt lat="43.81884" lon="5.31784">
        <ele>409.18</ele>
        <time>2021-03-29T08:10:59Z</time>
      </trkpt>
      <trkpt lat="43.81885" lon="5.31783">
        <ele>409.18</ele>
        <time>2021-03-29T08:11:00Z</time>
      </trkpt>
      <trkpt lat="43.81886" lon="5.31782">
        <ele>409.18</ele>
        <time>2021-03-29T08:11:01Z</time>
      </trkpt>
      <trkpt lat="43.8189" lon="5.31778">
        <ele>409.18</ele>
        <time>2021-03-29T08:11:05Z</time>
      </trkpt>
      <trkpt lat="43.81914" lon="5.3178">
        <ele>409.66</ele>
        <time>2021-03-29T08:11:26Z</time>
      </trkpt>
      <trkpt lat="43.81934" lon="5.31783">
        <ele>410.62</ele>
        <time>2021-03-29T08:11:45Z</time>
      </trkpt>
      <trkpt lat="43.81957" lon="5.31785">
        <ele>411.58</ele>
        <time>2021-03-29T08:12:05Z</time>
      </trkpt>
      <trkpt lat="43.81983" lon="5.31786">
        <ele>413.02</ele>
        <time>2021-03-29T08:12:29Z</time>
      </trkpt>
      <trkpt lat="43.82003" lon="5.31799">
        <ele>413.5</ele>
        <time>2021-03-29T08:12:48Z</time>
      </trkpt>
      <trkpt lat="43.8202" lon="5.31822">
        <ele>413.98</ele>
        <time>2021-03-29T08:13:10Z</time>
      </trkpt>
      <trkpt lat="43.82031" lon="5.31844">
        <ele>415.43</ele>
        <time>2021-03-29T08:13:28Z</time>
      </trkpt>
      <trkpt lat="43.82042" lon="5.31862">
        <ele>415.43</ele>
        <time>2021-03-29T08:13:44Z</time>
      </trkpt>
      <trkpt lat="43.82053" lon="5.31879">
        <ele>415.91</ele>
        <time>2021-03-29T08:14:00Z</time>
      </trkpt>
      <trkpt lat="43.82066" lon="5.31901">
        <ele>416.39</ele>
        <time>2021-03-29T08:14:19Z</time>
      </trkpt>
      <trkpt lat="43.82082" lon="5.31923">
        <ele>417.83</ele>
        <time>2021-03-29T08:14:38Z</time>
      </trkpt>
      <trkpt lat="43.82095" lon="5.31947">
        <ele>418.79</ele>
        <time>2021-03-29T08:14:59Z</time>
      </trkpt>
      <trkpt lat="43.8211" lon="5.31964">
        <ele>419.75</ele>
        <time>2021-03-29T08:15:18Z</time>
      </trkpt>
      <trkpt lat="43.82124" lon="5.31981">
        <ele>420.23</ele>
        <time>2021-03-29T08:15:37Z</time>
      </trkpt>
      <trkpt lat="43.82138" lon="5.32006">
        <ele>421.19</ele>
        <time>2021-03-29T08:15:59Z</time>
      </trkpt>
      <trkpt lat="43.82154" lon="5.3203">
        <ele>422.16</ele>
        <time>2021-03-29T08:16:19Z</time>
      </trkpt>
      <trkpt lat="43.82162" lon="5.32035">
        <ele>422.16</ele>
        <time>2021-03-29T08:16:27Z</time>
      </trkpt>
      <trkpt lat="43.82163" lon="5.32036">
        <ele>422.64</ele>
        <time>2021-03-29T08:16:28Z</time>
      </trkpt>
      <trkpt lat="43.82176" lon="5.3206">
        <ele>422.64</ele>
        <time>2021-03-29T08:16:45Z</time>
      </trkpt>
      <trkpt lat="43.82189" lon="5.32078">
        <ele>423.12</ele>
        <time>2021-03-29T08:17:03Z</time>
      </trkpt>
      <trkpt lat="43.82201" lon="5.32101">
        <ele>423.6</ele>
        <time>2021-03-29T08:17:20Z</time>
      </trkpt>
      <trkpt lat="43.82205" lon="5.32119">
        <ele>424.56</ele>
        <time>2021-03-29T08:17:35Z</time>
      </trkpt>
      <trkpt lat="43.82204" lon="5.32121">
        <ele>425.52</ele>
        <time>2021-03-29T08:17:54Z</time>
      </trkpt>
      <trkpt lat="43.82202" lon="5.32124">
        <ele>425.52</ele>
        <time>2021-03-29T08:17:59Z</time>
      </trkpt>
      <trkpt lat="43.82201" lon="5.32128">
        <ele>425.04</ele>
        <time>2021-03-29T08:18:02Z</time>
      </trkpt>
      <trkpt lat="43.82194" lon="5.32153">
        <ele>426.96</ele>
        <time>2021-03-29T08:18:22Z</time>
      </trkpt>
      <trkpt lat="43.82191" lon="5.32178">
        <ele>427.92</ele>
        <time>2021-03-29T08:18:38Z</time>
      </trkpt>
      <trkpt lat="43.82186" lon="5.32205">
        <ele>429.37</ele>
        <time>2021-03-29T08:18:59Z</time>
      </trkpt>
      <trkpt lat="43.82185" lon="5.32231">
        <ele>430.81</ele>
        <time>2021-03-29T08:19:17Z</time>
      </trkpt>
      <trkpt lat="43.82182" lon="5.32257">
        <ele>431.77</ele>
        <time>2021-03-29T08:19:35Z</time>
      </trkpt>
      <trkpt lat="43.82182" lon="5.32294">
        <ele>433.21</ele>
        <time>2021-03-29T08:20:00Z</time>
      </trkpt>
      <trkpt lat="43.82179" lon="5.32328">
        <ele>433.69</ele>
        <time>2021-03-29T08:20:24Z</time>
      </trkpt>
      <trkpt lat="43.82179" lon="5.3233">
        <ele>433.69</ele>
        <time>2021-03-29T08:20:25Z</time>
      </trkpt>
      <trkpt lat="43.82179" lon="5.32331">
        <ele>433.69</ele>
        <time>2021-03-29T08:20:26Z</time>
      </trkpt>
      <trkpt lat="43.8218" lon="5.32354">
        <ele>434.17</ele>
        <time>2021-03-29T08:20:42Z</time>
      </trkpt>
      <trkpt lat="43.82182" lon="5.3237">
        <ele>434.65</ele>
        <time>2021-03-29T08:20:55Z</time>
      </trkpt>
      <trkpt lat="43.82184" lon="5.324">
        <ele>435.13</ele>
        <time>2021-03-29T08:21:12Z</time>
      </trkpt>
      <trkpt lat="43.82184" lon="5.32412">
        <ele>435.61</ele>
        <time>2021-03-29T08:21:19Z</time>
      </trkpt>
      <trkpt lat="43.82192" lon="5.3243">
        <ele>436.1</ele>
        <time>2021-03-29T08:21:31Z</time>
      </trkpt>
      <trkpt lat="43.82196" lon="5.32452">
        <ele>436.58</ele>
        <time>2021-03-29T08:21:47Z</time>
      </trkpt>
      <trkpt lat="43.82199" lon="5.32467">
        <ele>438.02</ele>
        <time>2021-03-29T08:22:00Z</time>
      </trkpt>
      <trkpt lat="43.822" lon="5.32473">
        <ele>438.02</ele>
        <time>2021-03-29T08:22:04Z</time>
      </trkpt>
      <trkpt lat="43.82202" lon="5.32482">
        <ele>438.02</ele>
        <time>2021-03-29T08:22:10Z</time>
      </trkpt>
      <trkpt lat="43.82199" lon="5.32508">
        <ele>438.98</ele>
        <time>2021-03-29T08:22:27Z</time>
      </trkpt>
      <trkpt lat="43.82186" lon="5.3253">
        <ele>438.5</ele>
        <time>2021-03-29T08:22:50Z</time>
      </trkpt>
      <trkpt lat="43.82184" lon="5.32531">
        <ele>439.46</ele>
        <time>2021-03-29T08:23:21Z</time>
      </trkpt>
      <trkpt lat="43.82186" lon="5.32532">
        <ele>438.98</ele>
        <time>2021-03-29T08:23:46Z</time>
      </trkpt>
      <trkpt lat="43.82188" lon="5.32533">
        <ele>438.98</ele>
        <time>2021-03-29T08:24:14Z</time>
      </trkpt>
      <trkpt lat="43.82188" lon="5.32532">
        <ele>438.98</ele>
        <time>2021-03-29T08:24:48Z</time>
      </trkpt>
      <trkpt lat="43.82186" lon="5.32536">
        <ele>439.94</ele>
        <time>2021-03-29T08:25:15Z</time>
      </trkpt>
      <trkpt lat="43.82185" lon="5.32537">
        <ele>440.42</ele>
        <time>2021-03-29T08:25:16Z</time>
      </trkpt>
      <trkpt lat="43.82176" lon="5.32563">
        <ele>439.46</ele>
        <time>2021-03-29T08:25:36Z</time>
      </trkpt>
      <trkpt lat="43.82171" lon="5.32593">
        <ele>439.94</ele>
        <time>2021-03-29T08:25:54Z</time>
      </trkpt>
      <trkpt lat="43.82168" lon="5.32603">
        <ele>440.42</ele>
        <time>2021-03-29T08:26:01Z</time>
      </trkpt>
      <trkpt lat="43.82161" lon="5.32624">
        <ele>440.9</ele>
        <time>2021-03-29T08:26:17Z</time>
      </trkpt>
      <trkpt lat="43.8215" lon="5.3266">
        <ele>441.86</ele>
        <time>2021-03-29T08:26:43Z</time>
      </trkpt>
      <trkpt lat="43.82135" lon="5.32685">
        <ele>442.34</ele>
        <time>2021-03-29T08:27:02Z</time>
      </trkpt>
      <trkpt lat="43.82121" lon="5.32711">
        <ele>443.31</ele>
        <time>2021-03-29T08:27:22Z</time>
      </trkpt>
      <trkpt lat="43.82112" lon="5.32736">
        <ele>443.79</ele>
        <time>2021-03-29T08:27:40Z</time>
      </trkpt>
      <trkpt lat="43.82098" lon="5.32762">
        <ele>443.79</ele>
        <time>2021-03-29T08:27:58Z</time>
      </trkpt>
      <trkpt lat="43.82094" lon="5.3277">
        <ele>443.79</ele>
        <time>2021-03-29T08:28:04Z</time>
      </trkpt>
      <trkpt lat="43.82093" lon="5.32772">
        <ele>443.79</ele>
        <time>2021-03-29T08:28:05Z</time>
      </trkpt>
      <trkpt lat="43.82092" lon="5.32774">
        <ele>443.79</ele>
        <time>2021-03-29T08:28:06Z</time>
      </trkpt>
      <trkpt lat="43.82088" lon="5.3278">
        <ele>443.79</ele>
        <time>2021-03-29T08:28:11Z</time>
      </trkpt>
      <trkpt lat="43.82087" lon="5.32782">
        <ele>443.79</ele>
        <time>2021-03-29T08:28:12Z</time>
      </trkpt>
      <trkpt lat="43.82086" lon="5.32783">
        <ele>443.79</ele>
        <time>2021-03-29T08:28:13Z</time>
      </trkpt>
      <trkpt lat="43.82073" lon="5.32806">
        <ele>443.79</ele>
        <time>2021-03-29T08:28:30Z</time>
      </trkpt>
      <trkpt lat="43.82061" lon="5.32828">
        <ele>443.79</ele>
        <time>2021-03-29T08:28:46Z</time>
      </trkpt>
      <trkpt lat="43.82053" lon="5.32846">
        <ele>443.79</ele>
        <time>2021-03-29T08:29:00Z</time>
      </trkpt>
      <trkpt lat="43.82051" lon="5.32854">
        <ele>443.31</ele>
        <time>2021-03-29T08:29:05Z</time>
      </trkpt>
      <trkpt lat="43.82042" lon="5.3287">
        <ele>442.82</ele>
        <time>2021-03-29T08:29:16Z</time>
      </trkpt>
      <trkpt lat="43.82028" lon="5.32895">
        <ele>442.82</ele>
        <time>2021-03-29T08:29:34Z</time>
      </trkpt>
      <trkpt lat="43.82019" lon="5.32919">
        <ele>442.34</ele>
        <time>2021-03-29T08:29:51Z</time>
      </trkpt>
      <trkpt lat="43.82004" lon="5.32945">
        <ele>441.86</ele>
        <time>2021-03-29T08:30:10Z</time>
      </trkpt>
      <trkpt lat="43.81987" lon="5.32972">
        <ele>441.38</ele>
        <time>2021-03-29T08:30:28Z</time>
      </trkpt>
      <trkpt lat="43.81973" lon="5.3299">
        <ele>441.38</ele>
        <time>2021-03-29T08:30:42Z</time>
      </trkpt>
      <trkpt lat="43.81958" lon="5.33012">
        <ele>440.42</ele>
        <time>2021-03-29T08:31:00Z</time>
      </trkpt>
      <trkpt lat="43.81945" lon="5.33031">
        <ele>440.42</ele>
        <time>2021-03-29T08:31:15Z</time>
      </trkpt>
      <trkpt lat="43.81941" lon="5.33039">
        <ele>439.94</ele>
        <time>2021-03-29T08:31:21Z</time>
      </trkpt>
      <trkpt lat="43.8194" lon="5.33041">
        <ele>439.94</ele>
        <time>2021-03-29T08:31:22Z</time>
      </trkpt>
      <trkpt lat="43.8193" lon="5.33061">
        <ele>438.98</ele>
        <time>2021-03-29T08:31:37Z</time>
      </trkpt>
      <trkpt lat="43.81921" lon="5.33085">
        <ele>438.5</ele>
        <time>2021-03-29T08:31:51Z</time>
      </trkpt>
      <trkpt lat="43.8192" lon="5.33086">
        <ele>438.02</ele>
        <time>2021-03-29T08:31:52Z</time>
      </trkpt>
      <trkpt lat="43.81906" lon="5.33108">
        <ele>436.58</ele>
        <time>2021-03-29T08:32:11Z</time>
      </trkpt>
      <trkpt lat="43.81907" lon="5.33107">
        <ele>436.58</ele>
        <time>2021-03-29T08:32:37Z</time>
      </trkpt>
      <trkpt lat="43.81905" lon="5.33109">
        <ele>436.58</ele>
        <time>2021-03-29T08:33:06Z</time>
      </trkpt>
      <trkpt lat="43.81907" lon="5.33112">
        <ele>436.58</ele>
        <time>2021-03-29T08:33:44Z</time>
      </trkpt>
      <trkpt lat="43.81906" lon="5.3311">
        <ele>436.58</ele>
        <time>2021-03-29T08:34:18Z</time>
      </trkpt>
      <trkpt lat="43.81906" lon="5.33108">
        <ele>436.58</ele>
        <time>2021-03-29T08:34:53Z</time>
      </trkpt>
      <trkpt lat="43.81907" lon="5.3311">
        <ele>436.58</ele>
        <time>2021-03-29T08:35:31Z</time>
      </trkpt>
      <trkpt lat="43.81907" lon="5.33111">
        <ele>436.58</ele>
        <time>2021-03-29T08:36:08Z</time>
      </trkpt>
      <trkpt lat="43.81906" lon="5.33111">
        <ele>436.58</ele>
        <time>2021-03-29T08:36:36Z</time>
      </trkpt>
      <trkpt lat="43.81907" lon="5.3311">
        <ele>436.58</ele>
        <time>2021-03-29T08:37:07Z</time>
      </trkpt>
      <trkpt lat="43.81907" lon="5.33111">
        <ele>436.58</ele>
        <time>2021-03-29T08:37:38Z</time>
      </trkpt>
      <trkpt lat="43.81907" lon="5.33112">
        <ele>436.58</ele>
        <time>2021-03-29T08:38:12Z</time>
      </trkpt>
      <trkpt lat="43.81909" lon="5.33111">
        <ele>436.58</ele>
        <time>2021-03-29T08:38:46Z</time>
      </trkpt>
      <trkpt lat="43.81907" lon="5.3311">
        <ele>436.58</ele>
        <time>2021-03-29T08:39:21Z</time>
      </trkpt>
      <trkpt lat="43.81907" lon="5.3311">
        <ele>436.58</ele>
        <time>2021-03-29T08:39:54Z</time>
      </trkpt>
      <trkpt lat="43.81907" lon="5.33109">
        <ele>436.58</ele>
        <time>2021-03-29T08:40:29Z</time>
      </trkpt>
      <trkpt lat="43.8191" lon="5.33111">
        <ele>436.58</ele>
        <time>2021-03-29T08:41:04Z</time>
      </trkpt>
      <trkpt lat="43.81909" lon="5.33111">
        <ele>436.58</ele>
        <time>2021-03-29T08:41:27Z</time>
      </trkpt>
      <trkpt lat="43.81909" lon="5.33109">
        <ele>436.58</ele>
        <time>2021-03-29T08:41:58Z</time>
      </trkpt>
      <trkpt lat="43.8191" lon="5.33108">
        <ele>436.58</ele>
        <time>2021-03-29T08:42:28Z</time>
      </trkpt>
      <trkpt lat="43.81909" lon="5.33108">
        <ele>436.58</ele>
        <time>2021-03-29T08:42:55Z</time>
      </trkpt>
      <trkpt lat="43.81908" lon="5.33108">
        <ele>436.58</ele>
        <time>2021-03-29T08:43:32Z</time>
      </trkpt>
      <trkpt lat="43.81907" lon="5.33107">
        <ele>436.58</ele>
        <time>2021-03-29T08:44:02Z</time>
      </trkpt>
      <trkpt lat="43.81908" lon="5.3311">
        <ele>436.58</ele>
        <time>2021-03-29T08:44:06Z</time>
      </trkpt>
      <trkpt lat="43.81901" lon="5.33131">
        <ele>435.61</ele>
        <time>2021-03-29T08:44:26Z</time>
      </trkpt>
      <trkpt lat="43.81893" lon="5.33153">
        <ele>433.21</ele>
        <time>2021-03-29T08:44:44Z</time>
      </trkpt>
      <trkpt lat="43.81889" lon="5.33171">
        <ele>429.85</ele>
        <time>2021-03-29T08:45:00Z</time>
      </trkpt>
      <trkpt lat="43.81886" lon="5.3318">
        <ele>426.48</ele>
        <time>2021-03-29T08:45:12Z</time>
      </trkpt>
      <trkpt lat="43.81882" lon="5.33195">
        <ele>423.6</ele>
        <time>2021-03-29T08:45:25Z</time>
      </trkpt>
      <trkpt lat="43.81879" lon="5.33203">
        <ele>421.19</ele>
        <time>2021-03-29T08:45:35Z</time>
      </trkpt>
      <trkpt lat="43.81874" lon="5.33218">
        <ele>418.31</ele>
        <time>2021-03-29T08:45:51Z</time>
      </trkpt>
      <trkpt lat="43.81872" lon="5.33225">
        <ele>414.95</ele>
        <time>2021-03-29T08:46:05Z</time>
      </trkpt>
      <trkpt lat="43.81864" lon="5.33239">
        <ele>412.06</ele>
        <time>2021-03-29T08:46:19Z</time>
      </trkpt>
      <trkpt lat="43.81862" lon="5.33252">
        <ele>408.7</ele>
        <time>2021-03-29T08:46:33Z</time>
      </trkpt>
      <trkpt lat="43.81854" lon="5.33266">
        <ele>405.81</ele>
        <time>2021-03-29T08:46:47Z</time>
      </trkpt>
      <trkpt lat="43.81852" lon="5.33278">
        <ele>402.45</ele>
        <time>2021-03-29T08:47:01Z</time>
      </trkpt>
      <trkpt lat="43.81848" lon="5.33299">
        <ele>399.57</ele>
        <time>2021-03-29T08:47:16Z</time>
      </trkpt>
      <trkpt lat="43.8184" lon="5.33309">
        <ele>397.16</ele>
        <time>2021-03-29T08:47:28Z</time>
      </trkpt>
      <trkpt lat="43.81844" lon="5.33319">
        <ele>393.8</ele>
        <time>2021-03-29T08:47:43Z</time>
      </trkpt>
      <trkpt lat="43.81852" lon="5.33323">
        <ele>390.91</ele>
        <time>2021-03-29T08:48:02Z</time>
      </trkpt>
      <trkpt lat="43.81855" lon="5.33338">
        <ele>388.99</ele>
        <time>2021-03-29T08:48:16Z</time>
      </trkpt>
      <trkpt lat="43.81853" lon="5.33342">
        <ele>388.03</ele>
        <time>2021-03-29T08:48:47Z</time>
      </trkpt>
      <trkpt lat="43.81851" lon="5.3334">
        <ele>388.03</ele>
        <time>2021-03-29T08:49:20Z</time>
      </trkpt>
      <trkpt lat="43.81851" lon="5.3334">
        <ele>388.03</ele>
        <time>2021-03-29T08:50:03Z</time>
      </trkpt>
      <trkpt lat="43.81855" lon="5.33339">
        <ele>388.03</ele>
        <time>2021-03-29T08:50:39Z</time>
      </trkpt>
      <trkpt lat="43.81857" lon="5.3335">
        <ele>388.03</ele>
        <time>2021-03-29T08:50:57Z</time>
      </trkpt>
      <trkpt lat="43.81861" lon="5.33373">
        <ele>388.03</ele>
        <time>2021-03-29T08:51:12Z</time>
      </trkpt>
      <trkpt lat="43.81855" lon="5.33386">
        <ele>388.03</ele>
        <time>2021-03-29T08:51:19Z</time>
      </trkpt>
      <trkpt lat="43.81845" lon="5.33406">
        <ele>388.03</ele>
        <time>2021-03-29T08:51:37Z</time>
      </trkpt>
      <trkpt lat="43.81839" lon="5.33424">
        <ele>388.03</ele>
        <time>2021-03-29T08:51:52Z</time>
      </trkpt>
      <trkpt lat="43.81825" lon="5.33443">
        <ele>387.07</ele>
        <time>2021-03-29T08:52:09Z</time>
      </trkpt>
      <trkpt lat="43.81809" lon="5.33472">
        <ele>386.59</ele>
        <time>2021-03-29T08:52:32Z</time>
      </trkpt>
      <trkpt lat="43.81805" lon="5.33491">
        <ele>388.03</ele>
        <time>2021-03-29T08:52:51Z</time>
      </trkpt>
      <trkpt lat="43.81803" lon="5.33512">
        <ele>390.43</ele>
        <time>2021-03-29T08:53:09Z</time>
      </trkpt>
      <trkpt lat="43.81799" lon="5.33525">
        <ele>391.87</ele>
        <time>2021-03-29T08:53:26Z</time>
      </trkpt>
      <trkpt lat="43.818" lon="5.33547">
        <ele>393.8</ele>
        <time>2021-03-29T08:53:47Z</time>
      </trkpt>
      <trkpt lat="43.81799" lon="5.33578">
        <ele>395.24</ele>
        <time>2021-03-29T08:54:10Z</time>
      </trkpt>
      <trkpt lat="43.81802" lon="5.33605">
        <ele>397.16</ele>
        <time>2021-03-29T08:54:34Z</time>
      </trkpt>
      <trkpt lat="43.81804" lon="5.33627">
        <ele>398.12</ele>
        <time>2021-03-29T08:54:54Z</time>
      </trkpt>
      <trkpt lat="43.8181" lon="5.33658">
        <ele>399.57</ele>
        <time>2021-03-29T08:55:18Z</time>
      </trkpt>
      <trkpt lat="43.81812" lon="5.33685">
        <ele>400.05</ele>
        <time>2021-03-29T08:55:38Z</time>
      </trkpt>
      <trkpt lat="43.81812" lon="5.33706">
        <ele>397.16</ele>
        <time>2021-03-29T08:55:58Z</time>
      </trkpt>
      <trkpt lat="43.81819" lon="5.33723">
        <ele>395.72</ele>
        <time>2021-03-29T08:56:14Z</time>
      </trkpt>
      <trkpt lat="43.81824" lon="5.3374">
        <ele>395.72</ele>
        <time>2021-03-29T08:56:25Z</time>
      </trkpt>
      <trkpt lat="43.81825" lon="5.33766">
        <ele>396.68</ele>
        <time>2021-03-29T08:56:39Z</time>
      </trkpt>
      <trkpt lat="43.81831" lon="5.33789">
        <ele>398.6</ele>
        <time>2021-03-29T08:56:56Z</time>
      </trkpt>
      <trkpt lat="43.81831" lon="5.33791">
        <ele>398.6</ele>
        <time>2021-03-29T08:56:57Z</time>
      </trkpt>
      <trkpt lat="43.81828" lon="5.33796">
        <ele>399.57</ele>
        <time>2021-03-29T08:57:02Z</time>
      </trkpt>
      <trkpt lat="43.81818" lon="5.33812">
        <ele>398.6</ele>
        <time>2021-03-29T08:57:18Z</time>
      </trkpt>
      <trkpt lat="43.81815" lon="5.33836">
        <ele>398.6</ele>
        <time>2021-03-29T08:57:33Z</time>
      </trkpt>
      <trkpt lat="43.81815" lon="5.33838">
        <ele>398.6</ele>
        <time>2021-03-29T08:57:34Z</time>
      </trkpt>
      <trkpt lat="43.81815" lon="5.3384">
        <ele>398.6</ele>
        <time>2021-03-29T08:57:35Z</time>
      </trkpt>
      <trkpt lat="43.81811" lon="5.33869">
        <ele>399.08</ele>
        <time>2021-03-29T08:57:54Z</time>
      </trkpt>
      <trkpt lat="43.81802" lon="5.33892">
        <ele>399.57</ele>
        <time>2021-03-29T08:58:11Z</time>
      </trkpt>
      <trkpt lat="43.81801" lon="5.33893">
        <ele>399.57</ele>
        <time>2021-03-29T08:58:12Z</time>
      </trkpt>
      <trkpt lat="43.81782" lon="5.33915">
        <ele>398.6</ele>
        <time>2021-03-29T08:58:31Z</time>
      </trkpt>
      <trkpt lat="43.81767" lon="5.33933">
        <ele>397.16</ele>
        <time>2021-03-29T08:58:48Z</time>
      </trkpt>
      <trkpt lat="43.8175" lon="5.33949">
        <ele>396.68</ele>
        <time>2021-03-29T08:59:07Z</time>
      </trkpt>
      <trkpt lat="43.81726" lon="5.33972">
        <ele>394.76</ele>
        <time>2021-03-29T08:59:31Z</time>
      </trkpt>
      <trkpt lat="43.81719" lon="5.33993">
        <ele>395.24</ele>
        <time>2021-03-29T08:59:50Z</time>
      </trkpt>
      <trkpt lat="43.81719" lon="5.34012">
        <ele>396.2</ele>
        <time>2021-03-29T09:00:07Z</time>
      </trkpt>
      <trkpt lat="43.81721" lon="5.3402">
        <ele>396.2</ele>
        <time>2021-03-29T09:00:22Z</time>
      </trkpt>
      <trkpt lat="43.81714" lon="5.34025">
        <ele>395.72</ele>
        <time>2021-03-29T09:00:41Z</time>
      </trkpt>
      <trkpt lat="43.81713" lon="5.34043">
        <ele>395.72</ele>
        <time>2021-03-29T09:01:02Z</time>
      </trkpt>
      <trkpt lat="43.81714" lon="5.34053">
        <ele>396.2</ele>
        <time>2021-03-29T09:01:31Z</time>
      </trkpt>
      <trkpt lat="43.81715" lon="5.34067">
        <ele>396.68</ele>
        <time>2021-03-29T09:01:59Z</time>
      </trkpt>
      <trkpt lat="43.81716" lon="5.34095">
        <ele>397.16</ele>
        <time>2021-03-29T09:02:21Z</time>
      </trkpt>
      <trkpt lat="43.81721" lon="5.34121">
        <ele>397.16</ele>
        <time>2021-03-29T09:02:42Z</time>
      </trkpt>
      <trkpt lat="43.81726" lon="5.34143">
        <ele>397.16</ele>
        <time>2021-03-29T09:03:01Z</time>
      </trkpt>
      <trkpt lat="43.81729" lon="5.3417">
        <ele>397.16</ele>
        <time>2021-03-29T09:03:21Z</time>
      </trkpt>
      <trkpt lat="43.81731" lon="5.342">
        <ele>397.16</ele>
        <time>2021-03-29T09:03:46Z</time>
      </trkpt>
      <trkpt lat="43.81731" lon="5.34228">
        <ele>397.16</ele>
        <time>2021-03-29T09:04:10Z</time>
      </trkpt>
      <trkpt lat="43.81731" lon="5.34243">
        <ele>388.51</ele>
        <time>2021-03-29T09:04:26Z</time>
      </trkpt>
      <trkpt lat="43.81732" lon="5.34244">
        <ele>388.51</ele>
        <time>2021-03-29T09:04:27Z</time>
      </trkpt>
      <trkpt lat="43.81731" lon="5.34263">
        <ele>387.55</ele>
        <time>2021-03-29T09:04:47Z</time>
      </trkpt>
      <trkpt lat="43.81732" lon="5.3428">
        <ele>384.18</ele>
        <time>2021-03-29T09:05:04Z</time>
      </trkpt>
      <trkpt lat="43.81733" lon="5.34287">
        <ele>381.3</ele>
        <time>2021-03-29T09:05:19Z</time>
      </trkpt>
      <trkpt lat="43.81736" lon="5.34299">
        <ele>377.94</ele>
        <time>2021-03-29T09:05:36Z</time>
      </trkpt>
      <trkpt lat="43.81738" lon="5.34305">
        <ele>375.05</ele>
        <time>2021-03-29T09:05:50Z</time>
      </trkpt>
      <trkpt lat="43.81738" lon="5.34326">
        <ele>372.17</ele>
        <time>2021-03-29T09:06:05Z</time>
      </trkpt>
      <trkpt lat="43.81732" lon="5.34336">
        <ele>371.21</ele>
        <time>2021-03-29T09:06:28Z</time>
      </trkpt>
      <trkpt lat="43.81731" lon="5.34336">
        <ele>367.36</ele>
        <time>2021-03-29T09:06:32Z</time>
      </trkpt>
      <trkpt lat="43.8173" lon="5.34337">
        <ele>372.17</ele>
        <time>2021-03-29T09:06:36Z</time>
      </trkpt>
      <trkpt lat="43.8173" lon="5.34337">
        <ele>374.09</ele>
        <time>2021-03-29T09:06:39Z</time>
      </trkpt>
      <trkpt lat="43.8173" lon="5.34336">
        <ele>372.17</ele>
        <time>2021-03-29T09:06:45Z</time>
      </trkpt>
      <trkpt lat="43.8173" lon="5.34336">
        <ele>369.76</ele>
        <time>2021-03-29T09:06:59Z</time>
      </trkpt>
      <trkpt lat="43.81729" lon="5.34336">
        <ele>371.69</ele>
        <time>2021-03-29T09:07:04Z</time>
      </trkpt>
      <trkpt lat="43.81731" lon="5.34339">
        <ele>370.73</ele>
        <time>2021-03-29T09:07:32Z</time>
      </trkpt>
      <trkpt lat="43.81731" lon="5.3434">
        <ele>371.21</ele>
        <time>2021-03-29T09:08:01Z</time>
      </trkpt>
      <trkpt lat="43.81731" lon="5.34343">
        <ele>371.21</ele>
        <time>2021-03-29T09:08:04Z</time>
      </trkpt>
      <trkpt lat="43.81725" lon="5.34348">
        <ele>371.21</ele>
        <time>2021-03-29T09:08:08Z</time>
      </trkpt>
      <trkpt lat="43.81708" lon="5.34359">
        <ele>369.76</ele>
        <time>2021-03-29T09:08:26Z</time>
      </trkpt>
      <trkpt lat="43.81701" lon="5.34359">
        <ele>368.32</ele>
        <time>2021-03-29T09:08:45Z</time>
      </trkpt>
      <trkpt lat="43.81702" lon="5.34362">
        <ele>368.8</ele>
        <time>2021-03-29T09:09:06Z</time>
      </trkpt>
      <trkpt lat="43.81704" lon="5.34361">
        <ele>367.84</ele>
        <time>2021-03-29T09:09:37Z</time>
      </trkpt>
      <trkpt lat="43.81703" lon="5.34351">
        <ele>367.84</ele>
        <time>2021-03-29T09:10:00Z</time>
      </trkpt>
      <trkpt lat="43.81695" lon="5.34345">
        <ele>367.84</ele>
        <time>2021-03-29T09:10:24Z</time>
      </trkpt>
      <trkpt lat="43.81692" lon="5.34345">
        <ele>362.55</ele>
        <time>2021-03-29T09:10:32Z</time>
      </trkpt>
      <trkpt lat="43.81691" lon="5.34346">
        <ele>362.55</ele>
        <time>2021-03-29T09:10:33Z</time>
      </trkpt>
      <trkpt lat="43.81689" lon="5.34341">
        <ele>359.67</ele>
        <time>2021-03-29T09:10:54Z</time>
      </trkpt>
      <trkpt lat="43.81687" lon="5.34337">
        <ele>357.75</ele>
        <time>2021-03-29T09:11:05Z</time>
      </trkpt>
      <trkpt lat="43.81678" lon="5.34355">
        <ele>354.86</ele>
        <time>2021-03-29T09:11:30Z</time>
      </trkpt>
      <trkpt lat="43.81679" lon="5.34365">
        <ele>351.98</ele>
        <time>2021-03-29T09:11:51Z</time>
      </trkpt>
      <trkpt lat="43.81677" lon="5.34369">
        <ele>348.13</ele>
        <time>2021-03-29T09:12:09Z</time>
      </trkpt>
      <trkpt lat="43.81676" lon="5.3437">
        <ele>348.13</ele>
        <time>2021-03-29T09:12:34Z</time>
      </trkpt>
      <trkpt lat="43.81675" lon="5.34373">
        <ele>350.06</ele>
        <time>2021-03-29T09:12:45Z</time>
      </trkpt>
      <trkpt lat="43.81674" lon="5.34374">
        <ele>347.65</ele>
        <time>2021-03-29T09:12:53Z</time>
      </trkpt>
      <trkpt lat="43.81675" lon="5.34369">
        <ele>350.54</ele>
        <time>2021-03-29T09:13:23Z</time>
      </trkpt>
      <trkpt lat="43.81675" lon="5.34369">
        <ele>348.62</ele>
        <time>2021-03-29T09:13:38Z</time>
      </trkpt>
      <trkpt lat="43.81678" lon="5.34369">
        <ele>348.62</ele>
        <time>2021-03-29T09:14:08Z</time>
      </trkpt>
      <trkpt lat="43.81682" lon="5.34377">
        <ele>345.73</ele>
        <time>2021-03-29T09:14:26Z</time>
      </trkpt>
      <trkpt lat="43.81681" lon="5.34387">
        <ele>342.85</ele>
        <time>2021-03-29T09:14:40Z</time>
      </trkpt>
      <trkpt lat="43.81682" lon="5.34399">
        <ele>339.48</ele>
        <time>2021-03-29T09:14:54Z</time>
      </trkpt>
      <trkpt lat="43.8168" lon="5.34411">
        <ele>336.6</ele>
        <time>2021-03-29T09:15:09Z</time>
      </trkpt>
      <trkpt lat="43.81674" lon="5.34415">
        <ele>333.71</ele>
        <time>2021-03-29T09:15:22Z</time>
      </trkpt>
      <trkpt lat="43.81668" lon="5.34424">
        <ele>330.35</ele>
        <time>2021-03-29T09:15:34Z</time>
      </trkpt>
      <trkpt lat="43.81668" lon="5.34436">
        <ele>326.99</ele>
        <time>2021-03-29T09:15:47Z</time>
      </trkpt>
      <trkpt lat="43.81671" lon="5.34446">
        <ele>324.1</ele>
        <time>2021-03-29T09:16:00Z</time>
      </trkpt>
      <trkpt lat="43.81675" lon="5.34459">
        <ele>321.22</ele>
        <time>2021-03-29T09:16:12Z</time>
      </trkpt>
      <trkpt lat="43.81679" lon="5.34476">
        <ele>318.33</ele>
        <time>2021-03-29T09:16:29Z</time>
      </trkpt>
      <trkpt lat="43.81677" lon="5.34484">
        <ele>314.97</ele>
        <time>2021-03-29T09:16:41Z</time>
      </trkpt>
      <trkpt lat="43.81677" lon="5.34485">
        <ele>314.01</ele>
        <time>2021-03-29T09:17:09Z</time>
      </trkpt>
      <trkpt lat="43.81675" lon="5.34489">
        <ele>314.49</ele>
        <time>2021-03-29T09:17:35Z</time>
      </trkpt>
      <trkpt lat="43.81676" lon="5.34478">
        <ele>314.01</ele>
        <time>2021-03-29T09:18:00Z</time>
      </trkpt>
      <trkpt lat="43.81675" lon="5.34476">
        <ele>314.49</ele>
        <time>2021-03-29T09:18:26Z</time>
      </trkpt>
      <trkpt lat="43.81677" lon="5.34474">
        <ele>314.49</ele>
        <time>2021-03-29T09:18:32Z</time>
      </trkpt>
      <trkpt lat="43.81674" lon="5.34479">
        <ele>314.01</ele>
        <time>2021-03-29T09:18:40Z</time>
      </trkpt>
      <trkpt lat="43.81675" lon="5.34484">
        <ele>314.49</ele>
        <time>2021-03-29T09:19:07Z</time>
      </trkpt>
      <trkpt lat="43.81676" lon="5.34489">
        <ele>314.49</ele>
        <time>2021-03-29T09:19:12Z</time>
      </trkpt>
      <trkpt lat="43.81677" lon="5.34491">
        <ele>314.49</ele>
        <time>2021-03-29T09:19:13Z</time>
      </trkpt>
      <trkpt lat="43.81678" lon="5.34493">
        <ele>314.49</ele>
        <time>2021-03-29T09:19:14Z</time>
      </trkpt>
      <trkpt lat="43.81679" lon="5.34494">
        <ele>314.49</ele>
        <time>2021-03-29T09:19:15Z</time>
      </trkpt>
      <trkpt lat="43.8168" lon="5.34496">
        <ele>314.49</ele>
        <time>2021-03-29T09:19:16Z</time>
      </trkpt>
      <trkpt lat="43.81681" lon="5.34497">
        <ele>314.49</ele>
        <time>2021-03-29T09:19:17Z</time>
      </trkpt>
      <trkpt lat="43.81683" lon="5.34499">
        <ele>314.49</ele>
        <time>2021-03-29T09:19:18Z</time>
      </trkpt>
      <trkpt lat="43.81697" lon="5.34515">
        <ele>315.45</ele>
        <time>2021-03-29T09:19:33Z</time>
      </trkpt>
      <trkpt lat="43.81703" lon="5.34527">
        <ele>316.41</ele>
        <time>2021-03-29T09:19:41Z</time>
      </trkpt>
      <trkpt lat="43.81714" lon="5.34547">
        <ele>317.37</ele>
        <time>2021-03-29T09:19:57Z</time>
      </trkpt>
      <trkpt lat="43.81716" lon="5.3456">
        <ele>317.37</ele>
        <time>2021-03-29T09:20:15Z</time>
      </trkpt>
      <trkpt lat="43.81718" lon="5.34557">
        <ele>317.37</ele>
        <time>2021-03-29T09:20:39Z</time>
      </trkpt>
      <trkpt lat="43.81727" lon="5.34565">
        <ele>316.89</ele>
        <time>2021-03-29T09:20:48Z</time>
      </trkpt>
      <trkpt lat="43.81743" lon="5.34587">
        <ele>314.97</ele>
        <time>2021-03-29T09:21:08Z</time>
      </trkpt>
      <trkpt lat="43.81751" lon="5.34618">
        <ele>313.53</ele>
        <time>2021-03-29T09:21:28Z</time>
      </trkpt>
      <trkpt lat="43.81754" lon="5.34635">
        <ele>312.57</ele>
        <time>2021-03-29T09:21:38Z</time>
      </trkpt>
      <trkpt lat="43.81758" lon="5.34646">
        <ele>311.6</ele>
        <time>2021-03-29T09:21:46Z</time>
      </trkpt>
      <trkpt lat="43.81759" lon="5.3465">
        <ele>311.12</ele>
        <time>2021-03-29T09:21:49Z</time>
      </trkpt>
      <trkpt lat="43.81763" lon="5.34677">
        <ele>309.2</ele>
        <time>2021-03-29T09:22:07Z</time>
      </trkpt>
      <trkpt lat="43.81765" lon="5.34701">
        <ele>307.28</ele>
        <time>2021-03-29T09:22:25Z</time>
      </trkpt>
      <trkpt lat="43.81757" lon="5.34731">
        <ele>304.39</ele>
        <time>2021-03-29T09:22:46Z</time>
      </trkpt>
      <trkpt lat="43.81749" lon="5.34744">
        <ele>302.95</ele>
        <time>2021-03-29T09:22:56Z</time>
      </trkpt>
      <trkpt lat="43.81748" lon="5.34747">
        <ele>302.47</ele>
        <time>2021-03-29T09:22:59Z</time>
      </trkpt>
      <trkpt lat="43.81745" lon="5.3475">
        <ele>301.99</ele>
        <time>2021-03-29T09:23:02Z</time>
      </trkpt>
      <trkpt lat="43.81744" lon="5.34751">
        <ele>301.99</ele>
        <time>2021-03-29T09:23:03Z</time>
      </trkpt>
      <trkpt lat="43.81737" lon="5.34762">
        <ele>301.03</ele>
        <time>2021-03-29T09:23:11Z</time>
      </trkpt>
      <trkpt lat="43.81737" lon="5.34765">
        <ele>300.55</ele>
        <time>2021-03-29T09:23:12Z</time>
      </trkpt>
      <trkpt lat="43.81736" lon="5.34767">
        <ele>300.07</ele>
        <time>2021-03-29T09:23:13Z</time>
      </trkpt>
      <trkpt lat="43.81736" lon="5.3477">
        <ele>300.07</ele>
        <time>2021-03-29T09:23:14Z</time>
      </trkpt>
      <trkpt lat="43.81737" lon="5.34796">
        <ele>298.15</ele>
        <time>2021-03-29T09:23:32Z</time>
      </trkpt>
      <trkpt lat="43.8174" lon="5.34816">
        <ele>296.22</ele>
        <time>2021-03-29T09:23:48Z</time>
      </trkpt>
      <trkpt lat="43.81743" lon="5.34848">
        <ele>293.34</ele>
        <time>2021-03-29T09:24:11Z</time>
      </trkpt>
      <trkpt lat="43.81744" lon="5.34876">
        <ele>289.97</ele>
        <time>2021-03-29T09:24:31Z</time>
      </trkpt>
      <trkpt lat="43.81748" lon="5.34904">
        <ele>289.01</ele>
        <time>2021-03-29T09:24:49Z</time>
      </trkpt>
      <trkpt lat="43.81749" lon="5.34905">
        <ele>289.01</ele>
        <time>2021-03-29T09:24:50Z</time>
      </trkpt>
      <trkpt lat="43.81754" lon="5.34909">
        <ele>288.53</ele>
        <time>2021-03-29T09:24:55Z</time>
      </trkpt>
      <trkpt lat="43.8176" lon="5.34916">
        <ele>287.57</ele>
        <time>2021-03-29T09:25:02Z</time>
      </trkpt>
      <trkpt lat="43.81762" lon="5.34917">
        <ele>287.57</ele>
        <time>2021-03-29T09:25:03Z</time>
      </trkpt>
      <trkpt lat="43.8177" lon="5.34927">
        <ele>287.09</ele>
        <time>2021-03-29T09:25:13Z</time>
      </trkpt>
      <trkpt lat="43.81771" lon="5.3493">
        <ele>287.09</ele>
        <time>2021-03-29T09:25:15Z</time>
      </trkpt>
      <trkpt lat="43.81775" lon="5.34944">
        <ele>287.57</ele>
        <time>2021-03-29T09:25:25Z</time>
      </trkpt>
      <trkpt lat="43.81788" lon="5.34959">
        <ele>287.57</ele>
        <time>2021-03-29T09:25:39Z</time>
      </trkpt>
      <trkpt lat="43.81795" lon="5.34971">
        <ele>288.05</ele>
        <time>2021-03-29T09:25:49Z</time>
      </trkpt>
      <trkpt lat="43.81796" lon="5.34973">
        <ele>288.05</ele>
        <time>2021-03-29T09:25:50Z</time>
      </trkpt>
      <trkpt lat="43.81801" lon="5.34987">
        <ele>288.53</ele>
        <time>2021-03-29T09:25:58Z</time>
      </trkpt>
      <trkpt lat="43.8181" lon="5.35012">
        <ele>289.01</ele>
        <time>2021-03-29T09:26:15Z</time>
      </trkpt>
      <trkpt lat="43.81816" lon="5.35039">
        <ele>289.49</ele>
        <time>2021-03-29T09:26:31Z</time>
      </trkpt>
      <trkpt lat="43.81822" lon="5.35055">
        <ele>289.49</ele>
        <time>2021-03-29T09:26:43Z</time>
      </trkpt>
      <trkpt lat="43.81822" lon="5.35056">
        <ele>289.49</ele>
        <time>2021-03-29T09:26:44Z</time>
      </trkpt>
      <trkpt lat="43.8183" lon="5.35084">
        <ele>289.97</ele>
        <time>2021-03-29T09:27:04Z</time>
      </trkpt>
      <trkpt lat="43.81837" lon="5.35103">
        <ele>289.97</ele>
        <time>2021-03-29T09:27:20Z</time>
      </trkpt>
      <trkpt lat="43.81839" lon="5.35113">
        <ele>289.97</ele>
        <time>2021-03-29T09:27:27Z</time>
      </trkpt>
      <trkpt lat="43.81839" lon="5.35116">
        <ele>289.97</ele>
        <time>2021-03-29T09:27:28Z</time>
      </trkpt>
      <trkpt lat="43.81843" lon="5.35139">
        <ele>290.46</ele>
        <time>2021-03-29T09:27:44Z</time>
      </trkpt>
      <trkpt lat="43.81843" lon="5.35142">
        <ele>290.46</ele>
        <time>2021-03-29T09:27:45Z</time>
      </trkpt>
      <trkpt lat="43.81845" lon="5.3517">
        <ele>291.42</ele>
        <time>2021-03-29T09:28:04Z</time>
      </trkpt>
      <trkpt lat="43.81847" lon="5.35184">
        <ele>291.42</ele>
        <time>2021-03-29T09:28:14Z</time>
      </trkpt>
      <trkpt lat="43.81853" lon="5.35199">
        <ele>292.38</ele>
        <time>2021-03-29T09:28:26Z</time>
      </trkpt>
      <trkpt lat="43.81858" lon="5.35214">
        <ele>292.86</ele>
        <time>2021-03-29T09:28:36Z</time>
      </trkpt>
      <trkpt lat="43.81862" lon="5.35232">
        <ele>293.82</ele>
        <time>2021-03-29T09:28:49Z</time>
      </trkpt>
      <trkpt lat="43.8187" lon="5.35255">
        <ele>295.74</ele>
        <time>2021-03-29T09:29:06Z</time>
      </trkpt>
      <trkpt lat="43.81871" lon="5.35257">
        <ele>296.22</ele>
        <time>2021-03-29T09:29:08Z</time>
      </trkpt>
      <trkpt lat="43.81872" lon="5.35259">
        <ele>296.22</ele>
        <time>2021-03-29T09:29:09Z</time>
      </trkpt>
      <trkpt lat="43.81872" lon="5.35261">
        <ele>296.22</ele>
        <time>2021-03-29T09:29:10Z</time>
      </trkpt>
      <trkpt lat="43.81883" lon="5.35287">
        <ele>296.22</ele>
        <time>2021-03-29T09:29:31Z</time>
      </trkpt>
      <trkpt lat="43.81892" lon="5.35317">
        <ele>296.7</ele>
        <time>2021-03-29T09:29:55Z</time>
      </trkpt>
      <trkpt lat="43.81897" lon="5.35324">
        <ele>297.18</ele>
        <time>2021-03-29T09:30:01Z</time>
      </trkpt>
      <trkpt lat="43.81898" lon="5.35325">
        <ele>296.7</ele>
        <time>2021-03-29T09:30:02Z</time>
      </trkpt>
      <trkpt lat="43.81912" lon="5.35336">
        <ele>297.18</ele>
        <time>2021-03-29T09:30:19Z</time>
      </trkpt>
      <trkpt lat="43.81918" lon="5.35343">
        <ele>297.67</ele>
        <time>2021-03-29T09:30:31Z</time>
      </trkpt>
      <trkpt lat="43.81929" lon="5.3535">
        <ele>298.15</ele>
        <time>2021-03-29T09:30:41Z</time>
      </trkpt>
      <trkpt lat="43.81951" lon="5.35371">
        <ele>298.15</ele>
        <time>2021-03-29T09:31:01Z</time>
      </trkpt>
      <trkpt lat="43.81966" lon="5.35395">
        <ele>298.63</ele>
        <time>2021-03-29T09:31:20Z</time>
      </trkpt>
      <trkpt lat="43.81977" lon="5.35415">
        <ele>298.63</ele>
        <time>2021-03-29T09:31:35Z</time>
      </trkpt>
      <trkpt lat="43.81979" lon="5.3542">
        <ele>298.63</ele>
        <time>2021-03-29T09:31:38Z</time>
      </trkpt>
      <trkpt lat="43.81988" lon="5.35432">
        <ele>299.59</ele>
        <time>2021-03-29T09:31:51Z</time>
      </trkpt>
      <trkpt lat="43.81992" lon="5.35434">
        <ele>299.59</ele>
        <time>2021-03-29T09:31:54Z</time>
      </trkpt>
      <trkpt lat="43.82004" lon="5.35452">
        <ele>299.59</ele>
        <time>2021-03-29T09:32:12Z</time>
      </trkpt>
      <trkpt lat="43.82016" lon="5.35472">
        <ele>300.55</ele>
        <time>2021-03-29T09:32:31Z</time>
      </trkpt>
      <trkpt lat="43.82017" lon="5.35473">
        <ele>300.55</ele>
        <time>2021-03-29T09:32:32Z</time>
      </trkpt>
      <trkpt lat="43.82031" lon="5.35487">
        <ele>301.51</ele>
        <time>2021-03-29T09:32:49Z</time>
      </trkpt>
      <trkpt lat="43.82042" lon="5.35504">
        <ele>301.99</ele>
        <time>2021-03-29T09:33:04Z</time>
      </trkpt>
      <trkpt lat="43.82055" lon="5.35524">
        <ele>303.43</ele>
        <time>2021-03-29T09:33:22Z</time>
      </trkpt>
      <trkpt lat="43.82063" lon="5.35545">
        <ele>303.91</ele>
        <time>2021-03-29T09:33:38Z</time>
      </trkpt>
      <trkpt lat="43.82073" lon="5.35571">
        <ele>304.39</ele>
        <time>2021-03-29T09:33:57Z</time>
      </trkpt>
      <trkpt lat="43.82082" lon="5.35583">
        <ele>305.84</ele>
        <time>2021-03-29T09:34:10Z</time>
      </trkpt>
      <trkpt lat="43.82096" lon="5.35596">
        <ele>306.32</ele>
        <time>2021-03-29T09:34:26Z</time>
      </trkpt>
      <trkpt lat="43.82103" lon="5.35612">
        <ele>307.28</ele>
        <time>2021-03-29T09:34:40Z</time>
      </trkpt>
      <trkpt lat="43.82116" lon="5.35629">
        <ele>308.72</ele>
        <time>2021-03-29T09:34:57Z</time>
      </trkpt>
      <trkpt lat="43.82133" lon="5.35649">
        <ele>310.16</ele>
        <time>2021-03-29T09:35:18Z</time>
      </trkpt>
      <trkpt lat="43.82144" lon="5.35662">
        <ele>311.12</ele>
        <time>2021-03-29T09:35:32Z</time>
      </trkpt>
      <trkpt lat="43.82157" lon="5.35682">
        <ele>312.09</ele>
        <time>2021-03-29T09:35:50Z</time>
      </trkpt>
      <trkpt lat="43.82166" lon="5.35696">
        <ele>313.05</ele>
        <time>2021-03-29T09:36:03Z</time>
      </trkpt>
      <trkpt lat="43.82171" lon="5.3571">
        <ele>313.05</ele>
        <time>2021-03-29T09:36:12Z</time>
      </trkpt>
      <trkpt lat="43.82183" lon="5.3573">
        <ele>314.01</ele>
        <time>2021-03-29T09:36:29Z</time>
      </trkpt>
      <trkpt lat="43.82189" lon="5.3574">
        <ele>314.49</ele>
        <time>2021-03-29T09:36:39Z</time>
      </trkpt>
      <trkpt lat="43.82195" lon="5.35755">
        <ele>315.45</ele>
        <time>2021-03-29T09:36:52Z</time>
      </trkpt>
      <trkpt lat="43.82201" lon="5.35764">
        <ele>316.41</ele>
        <time>2021-03-29T09:37:04Z</time>
      </trkpt>
      <trkpt lat="43.82202" lon="5.35771">
        <ele>314.97</ele>
        <time>2021-03-29T09:37:13Z</time>
      </trkpt>
      <trkpt lat="43.82195" lon="5.35776">
        <ele>314.97</ele>
        <time>2021-03-29T09:37:45Z</time>
      </trkpt>
      <trkpt lat="43.82196" lon="5.35788">
        <ele>314.97</ele>
        <time>2021-03-29T09:37:52Z</time>
      </trkpt>
      <trkpt lat="43.82203" lon="5.35805">
        <ele>314.97</ele>
        <time>2021-03-29T09:38:09Z</time>
      </trkpt>
      <trkpt lat="43.82204" lon="5.35807">
        <ele>317.37</ele>
        <time>2021-03-29T09:38:11Z</time>
      </trkpt>
      <trkpt lat="43.82205" lon="5.3581">
        <ele>318.81</ele>
        <time>2021-03-29T09:38:14Z</time>
      </trkpt>
      <trkpt lat="43.82212" lon="5.35819">
        <ele>319.78</ele>
        <time>2021-03-29T09:38:24Z</time>
      </trkpt>
      <trkpt lat="43.82224" lon="5.35834">
        <ele>320.74</ele>
        <time>2021-03-29T09:38:37Z</time>
      </trkpt>
      <trkpt lat="43.82231" lon="5.35846">
        <ele>321.7</ele>
        <time>2021-03-29T09:38:46Z</time>
      </trkpt>
      <trkpt lat="43.8224" lon="5.35859">
        <ele>323.14</ele>
        <time>2021-03-29T09:39:00Z</time>
      </trkpt>
      <trkpt lat="43.82247" lon="5.35865">
        <ele>323.62</ele>
        <time>2021-03-29T09:39:08Z</time>
      </trkpt>
      <trkpt lat="43.82248" lon="5.35866">
        <ele>323.62</ele>
        <time>2021-03-29T09:39:09Z</time>
      </trkpt>
      <trkpt lat="43.82271" lon="5.3588">
        <ele>324.58</ele>
        <time>2021-03-29T09:39:35Z</time>
      </trkpt>
      <trkpt lat="43.82289" lon="5.35878">
        <ele>326.02</ele>
        <time>2021-03-29T09:39:52Z</time>
      </trkpt>
      <trkpt lat="43.8231" lon="5.35879">
        <ele>326.99</ele>
        <time>2021-03-29T09:40:15Z</time>
      </trkpt>
      <trkpt lat="43.82326" lon="5.35881">
        <ele>328.43</ele>
        <time>2021-03-29T09:40:28Z</time>
      </trkpt>
      <trkpt lat="43.82342" lon="5.3588">
        <ele>329.87</ele>
        <time>2021-03-29T09:40:44Z</time>
      </trkpt>
      <trkpt lat="43.8236" lon="5.35879">
        <ele>331.31</ele>
        <time>2021-03-29T09:41:03Z</time>
      </trkpt>
      <trkpt lat="43.82371" lon="5.35879">
        <ele>332.27</ele>
        <time>2021-03-29T09:41:17Z</time>
      </trkpt>
      <trkpt lat="43.82378" lon="5.35877">
        <ele>333.71</ele>
        <time>2021-03-29T09:41:29Z</time>
      </trkpt>
      <trkpt lat="43.82382" lon="5.35875">
        <ele>332.75</ele>
        <time>2021-03-29T09:41:58Z</time>
      </trkpt>
      <trkpt lat="43.82381" lon="5.35874">
        <ele>334.2</ele>
        <time>2021-03-29T09:42:19Z</time>
      </trkpt>
      <trkpt lat="43.82379" lon="5.35879">
        <ele>334.68</ele>
        <time>2021-03-29T09:42:49Z</time>
      </trkpt>
      <trkpt lat="43.82381" lon="5.35877">
        <ele>333.23</ele>
        <time>2021-03-29T09:43:16Z</time>
      </trkpt>
      <trkpt lat="43.82378" lon="5.35877">
        <ele>334.2</ele>
        <time>2021-03-29T09:43:50Z</time>
      </trkpt>
      <trkpt lat="43.8238" lon="5.35876">
        <ele>334.2</ele>
        <time>2021-03-29T09:44:20Z</time>
      </trkpt>
      <trkpt lat="43.82383" lon="5.35885">
        <ele>334.2</ele>
        <time>2021-03-29T09:44:40Z</time>
      </trkpt>
      <trkpt lat="43.82384" lon="5.35886">
        <ele>334.2</ele>
        <time>2021-03-29T09:44:41Z</time>
      </trkpt>
      <trkpt lat="43.824" lon="5.359">
        <ele>333.23</ele>
        <time>2021-03-29T09:44:58Z</time>
      </trkpt>
      <trkpt lat="43.82412" lon="5.35901">
        <ele>331.79</ele>
        <time>2021-03-29T09:45:08Z</time>
      </trkpt>
      <trkpt lat="43.82414" lon="5.359">
        <ele>331.79</ele>
        <time>2021-03-29T09:45:09Z</time>
      </trkpt>
      <trkpt lat="43.82423" lon="5.35894">
        <ele>330.83</ele>
        <time>2021-03-29T09:45:17Z</time>
      </trkpt>
      <trkpt lat="43.8244" lon="5.35898">
        <ele>328.91</ele>
        <time>2021-03-29T09:45:34Z</time>
      </trkpt>
      <trkpt lat="43.82446" lon="5.35899">
        <ele>328.91</ele>
        <time>2021-03-29T09:45:51Z</time>
      </trkpt>
      <trkpt lat="43.82447" lon="5.359">
        <ele>328.91</ele>
        <time>2021-03-29T09:45:52Z</time>
      </trkpt>
      <trkpt lat="43.82454" lon="5.35909">
        <ele>328.91</ele>
        <time>2021-03-29T09:46:02Z</time>
      </trkpt>
      <trkpt lat="43.82457" lon="5.35904">
        <ele>328.91</ele>
        <time>2021-03-29T09:46:18Z</time>
      </trkpt>
      <trkpt lat="43.82462" lon="5.35891">
        <ele>328.43</ele>
        <time>2021-03-29T09:46:39Z</time>
      </trkpt>
      <trkpt lat="43.8247" lon="5.3587">
        <ele>328.91</ele>
        <time>2021-03-29T09:46:56Z</time>
      </trkpt>
      <trkpt lat="43.82469" lon="5.35866">
        <ele>328.91</ele>
        <time>2021-03-29T09:47:10Z</time>
      </trkpt>
      <trkpt lat="43.82469" lon="5.3588">
        <ele>328.43</ele>
        <time>2021-03-29T09:47:27Z</time>
      </trkpt>
      <trkpt lat="43.82462" lon="5.35887">
        <ele>328.43</ele>
        <time>2021-03-29T09:47:35Z</time>
      </trkpt>
      <trkpt lat="43.82452" lon="5.35902">
        <ele>329.39</ele>
        <time>2021-03-29T09:47:50Z</time>
      </trkpt>
      <trkpt lat="43.82451" lon="5.35903">
        <ele>329.39</ele>
        <time>2021-03-29T09:47:51Z</time>
      </trkpt>
      <trkpt lat="43.82437" lon="5.35898">
        <ele>329.39</ele>
        <time>2021-03-29T09:48:07Z</time>
      </trkpt>
      <trkpt lat="43.82438" lon="5.35899">
        <ele>329.87</ele>
        <time>2021-03-29T09:48:17Z</time>
      </trkpt>
      <trkpt lat="43.82439" lon="5.359">
        <ele>329.87</ele>
        <time>2021-03-29T09:48:18Z</time>
      </trkpt>
      <trkpt lat="43.82442" lon="5.35901">
        <ele>329.39</ele>
        <time>2021-03-29T09:48:32Z</time>
      </trkpt>
      <trkpt lat="43.82444" lon="5.35905">
        <ele>329.39</ele>
        <time>2021-03-29T09:48:34Z</time>
      </trkpt>
      <trkpt lat="43.82445" lon="5.35906">
        <ele>329.39</ele>
        <time>2021-03-29T09:48:35Z</time>
      </trkpt>
      <trkpt lat="43.82449" lon="5.3591">
        <ele>329.39</ele>
        <time>2021-03-29T09:48:39Z</time>
      </trkpt>
      <trkpt lat="43.82454" lon="5.3591">
        <ele>329.39</ele>
        <time>2021-03-29T09:48:52Z</time>
      </trkpt>
      <trkpt lat="43.82454" lon="5.35909">
        <ele>329.39</ele>
        <time>2021-03-29T09:48:53Z</time>
      </trkpt>
      <trkpt lat="43.82471" lon="5.35892">
        <ele>331.31</ele>
        <time>2021-03-29T09:49:10Z</time>
      </trkpt>
      <trkpt lat="43.82466" lon="5.35897">
        <ele>331.31</ele>
        <time>2021-03-29T09:49:17Z</time>
      </trkpt>
      <trkpt lat="43.82456" lon="5.35904">
        <ele>329.39</ele>
        <time>2021-03-29T09:49:30Z</time>
      </trkpt>
      <trkpt lat="43.82441" lon="5.35904">
        <ele>329.39</ele>
        <time>2021-03-29T09:49:47Z</time>
      </trkpt>
      <trkpt lat="43.8244" lon="5.35904">
        <ele>329.39</ele>
        <time>2021-03-29T09:49:48Z</time>
      </trkpt>
      <trkpt lat="43.82428" lon="5.35901">
        <ele>329.87</ele>
        <time>2021-03-29T09:49:59Z</time>
      </trkpt>
      <trkpt lat="43.82416" lon="5.35901">
        <ele>330.35</ele>
        <time>2021-03-29T09:50:11Z</time>
      </trkpt>
      <trkpt lat="43.82397" lon="5.35898">
        <ele>331.79</ele>
        <time>2021-03-29T09:50:25Z</time>
      </trkpt>
      <trkpt lat="43.82396" lon="5.35897">
        <ele>331.79</ele>
        <time>2021-03-29T09:50:26Z</time>
      </trkpt>
      <trkpt lat="43.82395" lon="5.35896">
        <ele>331.79</ele>
        <time>2021-03-29T09:50:27Z</time>
      </trkpt>
      <trkpt lat="43.82389" lon="5.35887">
        <ele>333.23</ele>
        <time>2021-03-29T09:50:35Z</time>
      </trkpt>
      <trkpt lat="43.82388" lon="5.35885">
        <ele>333.23</ele>
        <time>2021-03-29T09:50:36Z</time>
      </trkpt>
      <trkpt lat="43.82384" lon="5.35871">
        <ele>334.2</ele>
        <time>2021-03-29T09:50:46Z</time>
      </trkpt>
      <trkpt lat="43.82381" lon="5.35858">
        <ele>335.64</ele>
        <time>2021-03-29T09:50:53Z</time>
      </trkpt>
      <trkpt lat="43.82374" lon="5.35849">
        <ele>335.64</ele>
        <time>2021-03-29T09:51:01Z</time>
      </trkpt>
      <trkpt lat="43.82363" lon="5.35842">
        <ele>337.08</ele>
        <time>2021-03-29T09:51:12Z</time>
      </trkpt>
      <trkpt lat="43.82341" lon="5.35822">
        <ele>339</ele>
        <time>2021-03-29T09:51:35Z</time>
      </trkpt>
      <trkpt lat="43.8233" lon="5.35802">
        <ele>340.44</ele>
        <time>2021-03-29T09:51:50Z</time>
      </trkpt>
      <trkpt lat="43.82329" lon="5.35801">
        <ele>340.44</ele>
        <time>2021-03-29T09:51:51Z</time>
      </trkpt>
      <trkpt lat="43.82318" lon="5.35774">
        <ele>342.37</ele>
        <time>2021-03-29T09:52:09Z</time>
      </trkpt>
      <trkpt lat="43.82315" lon="5.35747">
        <ele>344.77</ele>
        <time>2021-03-29T09:52:26Z</time>
      </trkpt>
      <trkpt lat="43.82307" lon="5.35723">
        <ele>345.25</ele>
        <time>2021-03-29T09:52:43Z</time>
      </trkpt>
      <trkpt lat="43.82301" lon="5.35702">
        <ele>346.21</ele>
        <time>2021-03-29T09:52:59Z</time>
      </trkpt>
      <trkpt lat="43.82298" lon="5.35683">
        <ele>347.17</ele>
        <time>2021-03-29T09:53:12Z</time>
      </trkpt>
      <trkpt lat="43.82292" lon="5.35654">
        <ele>348.62</ele>
        <time>2021-03-29T09:53:29Z</time>
      </trkpt>
      <trkpt lat="43.82292" lon="5.35652">
        <ele>348.62</ele>
        <time>2021-03-29T09:53:30Z</time>
      </trkpt>
      <trkpt lat="43.82289" lon="5.35628">
        <ele>350.06</ele>
        <time>2021-03-29T09:53:48Z</time>
      </trkpt>
      <trkpt lat="43.8229" lon="5.35603">
        <ele>351.98</ele>
        <time>2021-03-29T09:54:02Z</time>
      </trkpt>
      <trkpt lat="43.8229" lon="5.356">
        <ele>351.98</ele>
        <time>2021-03-29T09:54:04Z</time>
      </trkpt>
      <trkpt lat="43.8229" lon="5.35593">
        <ele>352.46</ele>
        <time>2021-03-29T09:54:08Z</time>
      </trkpt>
      <trkpt lat="43.8229" lon="5.35591">
        <ele>352.46</ele>
        <time>2021-03-29T09:54:09Z</time>
      </trkpt>
      <trkpt lat="43.8229" lon="5.35589">
        <ele>352.46</ele>
        <time>2021-03-29T09:54:10Z</time>
      </trkpt>
      <trkpt lat="43.82287" lon="5.35562">
        <ele>353.9</ele>
        <time>2021-03-29T09:54:27Z</time>
      </trkpt>
      <trkpt lat="43.8229" lon="5.3554">
        <ele>355.83</ele>
        <time>2021-03-29T09:54:42Z</time>
      </trkpt>
      <trkpt lat="43.82289" lon="5.35518">
        <ele>356.79</ele>
        <time>2021-03-29T09:54:56Z</time>
      </trkpt>
      <trkpt lat="43.8229" lon="5.35481">
        <ele>359.19</ele>
        <time>2021-03-29T09:55:20Z</time>
      </trkpt>
      <trkpt lat="43.82289" lon="5.35465">
        <ele>360.63</ele>
        <time>2021-03-29T09:55:32Z</time>
      </trkpt>
      <trkpt lat="43.82288" lon="5.3545">
        <ele>361.59</ele>
        <time>2021-03-29T09:55:42Z</time>
      </trkpt>
      <trkpt lat="43.82285" lon="5.35433">
        <ele>363.04</ele>
        <time>2021-03-29T09:55:52Z</time>
      </trkpt>
      <trkpt lat="43.82285" lon="5.35425">
        <ele>363.04</ele>
        <time>2021-03-29T09:55:57Z</time>
      </trkpt>
      <trkpt lat="43.82284" lon="5.35418">
        <ele>364</ele>
        <time>2021-03-29T09:56:01Z</time>
      </trkpt>
      <trkpt lat="43.82282" lon="5.35401">
        <ele>364.96</ele>
        <time>2021-03-29T09:56:11Z</time>
      </trkpt>
      <trkpt lat="43.8228" lon="5.35369">
        <ele>366.4</ele>
        <time>2021-03-29T09:56:30Z</time>
      </trkpt>
      <trkpt lat="43.82281" lon="5.35353">
        <ele>368.32</ele>
        <time>2021-03-29T09:56:46Z</time>
      </trkpt>
      <trkpt lat="43.82279" lon="5.35342">
        <ele>368.32</ele>
        <time>2021-03-29T09:56:54Z</time>
      </trkpt>
      <trkpt lat="43.82278" lon="5.35342">
        <ele>368.32</ele>
        <time>2021-03-29T09:56:55Z</time>
      </trkpt>
      <trkpt lat="43.8227" lon="5.35332">
        <ele>367.36</ele>
        <time>2021-03-29T09:57:08Z</time>
      </trkpt>
      <trkpt lat="43.82273" lon="5.35336">
        <ele>367.36</ele>
        <time>2021-03-29T09:57:15Z</time>
      </trkpt>
      <trkpt lat="43.82274" lon="5.35337">
        <ele>367.36</ele>
        <time>2021-03-29T09:57:16Z</time>
      </trkpt>
      <trkpt lat="43.82275" lon="5.35338">
        <ele>367.36</ele>
        <time>2021-03-29T09:57:17Z</time>
      </trkpt>
      <trkpt lat="43.82278" lon="5.35341">
        <ele>367.36</ele>
        <time>2021-03-29T09:57:19Z</time>
      </trkpt>
      <trkpt lat="43.82279" lon="5.35342">
        <ele>367.36</ele>
        <time>2021-03-29T09:57:20Z</time>
      </trkpt>
      <trkpt lat="43.82281" lon="5.35343">
        <ele>367.36</ele>
        <time>2021-03-29T09:57:21Z</time>
      </trkpt>
      <trkpt lat="43.82283" lon="5.35346">
        <ele>367.84</ele>
        <time>2021-03-29T09:57:24Z</time>
      </trkpt>
      <trkpt lat="43.82284" lon="5.35348">
        <ele>367.84</ele>
        <time>2021-03-29T09:57:25Z</time>
      </trkpt>
      <trkpt lat="43.8229" lon="5.35357">
        <ele>368.32</ele>
        <time>2021-03-29T09:57:41Z</time>
      </trkpt>
      <trkpt lat="43.82296" lon="5.35363">
        <ele>368.8</ele>
        <time>2021-03-29T09:57:53Z</time>
      </trkpt>
      <trkpt lat="43.82297" lon="5.35364">
        <ele>370.73</ele>
        <time>2021-03-29T09:58:27Z</time>
      </trkpt>
      <trkpt lat="43.82299" lon="5.35366">
        <ele>370.24</ele>
        <time>2021-03-29T09:58:40Z</time>
      </trkpt>
      <trkpt lat="43.823" lon="5.35361">
        <ele>371.21</ele>
        <time>2021-03-29T09:59:05Z</time>
      </trkpt>
      <trkpt lat="43.823" lon="5.35358">
        <ele>371.21</ele>
        <time>2021-03-29T09:59:36Z</time>
      </trkpt>
      <trkpt lat="43.82301" lon="5.35362">
        <ele>371.21</ele>
        <time>2021-03-29T10:00:10Z</time>
      </trkpt>
      <trkpt lat="43.82304" lon="5.3536">
        <ele>371.21</ele>
        <time>2021-03-29T10:00:36Z</time>
      </trkpt>
      <trkpt lat="43.823" lon="5.35352">
        <ele>371.21</ele>
        <time>2021-03-29T10:01:09Z</time>
      </trkpt>
      <trkpt lat="43.82305" lon="5.35341">
        <ele>372.65</ele>
        <time>2021-03-29T10:01:22Z</time>
      </trkpt>
      <trkpt lat="43.82306" lon="5.35339">
        <ele>372.65</ele>
        <time>2021-03-29T10:01:23Z</time>
      </trkpt>
      <trkpt lat="43.82309" lon="5.3532">
        <ele>374.09</ele>
        <time>2021-03-29T10:01:36Z</time>
      </trkpt>
      <trkpt lat="43.82316" lon="5.35308">
        <ele>375.53</ele>
        <time>2021-03-29T10:01:47Z</time>
      </trkpt>
      <trkpt lat="43.82318" lon="5.35295">
        <ele>376.97</ele>
        <time>2021-03-29T10:02:01Z</time>
      </trkpt>
      <trkpt lat="43.82321" lon="5.35275">
        <ele>379.38</ele>
        <time>2021-03-29T10:02:15Z</time>
      </trkpt>
      <trkpt lat="43.82321" lon="5.35269">
        <ele>379.86</ele>
        <time>2021-03-29T10:02:20Z</time>
      </trkpt>
      <trkpt lat="43.82323" lon="5.35258">
        <ele>381.78</ele>
        <time>2021-03-29T10:02:30Z</time>
      </trkpt>
      <trkpt lat="43.82326" lon="5.35253">
        <ele>382.74</ele>
        <time>2021-03-29T10:02:36Z</time>
      </trkpt>
      <trkpt lat="43.8233" lon="5.35238">
        <ele>384.66</ele>
        <time>2021-03-29T10:02:52Z</time>
      </trkpt>
      <trkpt lat="43.82334" lon="5.35225">
        <ele>386.59</ele>
        <time>2021-03-29T10:03:03Z</time>
      </trkpt>
      <trkpt lat="43.82335" lon="5.35221">
        <ele>387.07</ele>
        <time>2021-03-29T10:03:06Z</time>
      </trkpt>
      <trkpt lat="43.82339" lon="5.35212">
        <ele>387.55</ele>
        <time>2021-03-29T10:03:16Z</time>
      </trkpt>
      <trkpt lat="43.82341" lon="5.35208">
        <ele>388.03</ele>
        <time>2021-03-29T10:03:19Z</time>
      </trkpt>
      <trkpt lat="43.82351" lon="5.35188">
        <ele>390.91</ele>
        <time>2021-03-29T10:03:42Z</time>
      </trkpt>
      <trkpt lat="43.82364" lon="5.35172">
        <ele>393.8</ele>
        <time>2021-03-29T10:04:01Z</time>
      </trkpt>
      <trkpt lat="43.8237" lon="5.35164">
        <ele>396.2</ele>
        <time>2021-03-29T10:04:13Z</time>
      </trkpt>
      <trkpt lat="43.82371" lon="5.35164">
        <ele>396.2</ele>
        <time>2021-03-29T10:04:14Z</time>
      </trkpt>
      <trkpt lat="43.82374" lon="5.35155">
        <ele>397.16</ele>
        <time>2021-03-29T10:04:20Z</time>
      </trkpt>
      <trkpt lat="43.82377" lon="5.35148">
        <ele>397.64</ele>
        <time>2021-03-29T10:04:26Z</time>
      </trkpt>
      <trkpt lat="43.82377" lon="5.35146">
        <ele>398.12</ele>
        <time>2021-03-29T10:04:27Z</time>
      </trkpt>
      <trkpt lat="43.8238" lon="5.35136">
        <ele>399.08</ele>
        <time>2021-03-29T10:04:42Z</time>
      </trkpt>
      <trkpt lat="43.8238" lon="5.3512">
        <ele>400.53</ele>
        <time>2021-03-29T10:04:59Z</time>
      </trkpt>
      <trkpt lat="43.82379" lon="5.35104">
        <ele>401.97</ele>
        <time>2021-03-29T10:05:17Z</time>
      </trkpt>
      <trkpt lat="43.82375" lon="5.35086">
        <ele>403.89</ele>
        <time>2021-03-29T10:05:31Z</time>
      </trkpt>
      <trkpt lat="43.82373" lon="5.35067">
        <ele>406.29</ele>
        <time>2021-03-29T10:05:51Z</time>
      </trkpt>
      <trkpt lat="43.82373" lon="5.35039">
        <ele>409.18</ele>
        <time>2021-03-29T10:06:14Z</time>
      </trkpt>
      <trkpt lat="43.82373" lon="5.35022">
        <ele>410.62</ele>
        <time>2021-03-29T10:06:30Z</time>
      </trkpt>
      <trkpt lat="43.82375" lon="5.35008">
        <ele>412.54</ele>
        <time>2021-03-29T10:06:40Z</time>
      </trkpt>
      <trkpt lat="43.82374" lon="5.34983">
        <ele>413.98</ele>
        <time>2021-03-29T10:07:01Z</time>
      </trkpt>
      <trkpt lat="43.82376" lon="5.3497">
        <ele>416.39</ele>
        <time>2021-03-29T10:07:16Z</time>
      </trkpt>
      <trkpt lat="43.82362" lon="5.34946">
        <ele>419.27</ele>
        <time>2021-03-29T10:07:38Z</time>
      </trkpt>
      <trkpt lat="43.82361" lon="5.34945">
        <ele>419.27</ele>
        <time>2021-03-29T10:07:39Z</time>
      </trkpt>
      <trkpt lat="43.82351" lon="5.34943">
        <ele>421.68</ele>
        <time>2021-03-29T10:07:54Z</time>
      </trkpt>
      <trkpt lat="43.8235" lon="5.34939">
        <ele>421.68</ele>
        <time>2021-03-29T10:07:58Z</time>
      </trkpt>
      <trkpt lat="43.82353" lon="5.34934">
        <ele>422.16</ele>
        <time>2021-03-29T10:08:11Z</time>
      </trkpt>
      <trkpt lat="43.82349" lon="5.34928">
        <ele>422.64</ele>
        <time>2021-03-29T10:08:23Z</time>
      </trkpt>
      <trkpt lat="43.8234" lon="5.34919">
        <ele>423.6</ele>
        <time>2021-03-29T10:08:40Z</time>
      </trkpt>
      <trkpt lat="43.82334" lon="5.34915">
        <ele>424.56</ele>
        <time>2021-03-29T10:09:04Z</time>
      </trkpt>
      <trkpt lat="43.82334" lon="5.34911">
        <ele>424.56</ele>
        <time>2021-03-29T10:09:10Z</time>
      </trkpt>
      <trkpt lat="43.82334" lon="5.34908">
        <ele>424.08</ele>
        <time>2021-03-29T10:09:31Z</time>
      </trkpt>
      <trkpt lat="43.82337" lon="5.3491">
        <ele>424.56</ele>
        <time>2021-03-29T10:10:06Z</time>
      </trkpt>
      <trkpt lat="43.82338" lon="5.34909">
        <ele>423.6</ele>
        <time>2021-03-29T10:10:32Z</time>
      </trkpt>
      <trkpt lat="43.82344" lon="5.34901">
        <ele>420.23</ele>
        <time>2021-03-29T10:10:54Z</time>
      </trkpt>
      <trkpt lat="43.82344" lon="5.34901">
        <ele>420.23</ele>
        <time>2021-03-29T10:10:55Z</time>
      </trkpt>
      <trkpt lat="43.82343" lon="5.34901">
        <ele>423.6</ele>
        <time>2021-03-29T10:11:00Z</time>
      </trkpt>
      <trkpt lat="43.82342" lon="5.34902">
        <ele>425.04</ele>
        <time>2021-03-29T10:11:03Z</time>
      </trkpt>
      <trkpt lat="43.82333" lon="5.3491">
        <ele>423.6</ele>
        <time>2021-03-29T10:11:30Z</time>
      </trkpt>
      <trkpt lat="43.82338" lon="5.34906">
        <ele>423.6</ele>
        <time>2021-03-29T10:12:05Z</time>
      </trkpt>
      <trkpt lat="43.82339" lon="5.34909">
        <ele>423.6</ele>
        <time>2021-03-29T10:12:54Z</time>
      </trkpt>
      <trkpt lat="43.82337" lon="5.34911">
        <ele>423.6</ele>
        <time>2021-03-29T10:13:24Z</time>
      </trkpt>
      <trkpt lat="43.82339" lon="5.34908">
        <ele>423.6</ele>
        <time>2021-03-29T10:13:53Z</time>
      </trkpt>
      <trkpt lat="43.82338" lon="5.3491">
        <ele>423.6</ele>
        <time>2021-03-29T10:14:25Z</time>
      </trkpt>
      <trkpt lat="43.82336" lon="5.34913">
        <ele>423.6</ele>
        <time>2021-03-29T10:15:00Z</time>
      </trkpt>
      <trkpt lat="43.82342" lon="5.34904">
        <ele>423.6</ele>
        <time>2021-03-29T10:15:38Z</time>
      </trkpt>
      <trkpt lat="43.82345" lon="5.34906">
        <ele>423.6</ele>
        <time>2021-03-29T10:16:09Z</time>
      </trkpt>
      <trkpt lat="43.82341" lon="5.34908">
        <ele>423.6</ele>
        <time>2021-03-29T10:16:39Z</time>
      </trkpt>
      <trkpt lat="43.82339" lon="5.34907">
        <ele>423.6</ele>
        <time>2021-03-29T10:17:12Z</time>
      </trkpt>
      <trkpt lat="43.82343" lon="5.3491">
        <ele>423.6</ele>
        <time>2021-03-29T10:17:43Z</time>
      </trkpt>
      <trkpt lat="43.8234" lon="5.34909">
        <ele>423.6</ele>
        <time>2021-03-29T10:18:21Z</time>
      </trkpt>
      <trkpt lat="43.8234" lon="5.34905">
        <ele>423.6</ele>
        <time>2021-03-29T10:18:55Z</time>
      </trkpt>
      <trkpt lat="43.82339" lon="5.34904">
        <ele>423.6</ele>
        <time>2021-03-29T10:19:27Z</time>
      </trkpt>
      <trkpt lat="43.82333" lon="5.34909">
        <ele>423.6</ele>
        <time>2021-03-29T10:19:58Z</time>
      </trkpt>
      <trkpt lat="43.82331" lon="5.34913">
        <ele>423.6</ele>
        <time>2021-03-29T10:20:30Z</time>
      </trkpt>
      <trkpt lat="43.82336" lon="5.34912">
        <ele>423.6</ele>
        <time>2021-03-29T10:21:06Z</time>
      </trkpt>
      <trkpt lat="43.82339" lon="5.34912">
        <ele>423.6</ele>
        <time>2021-03-29T10:21:35Z</time>
      </trkpt>
      <trkpt lat="43.82336" lon="5.34908">
        <ele>423.6</ele>
        <time>2021-03-29T10:22:00Z</time>
      </trkpt>
      <trkpt lat="43.82337" lon="5.34907">
        <ele>423.6</ele>
        <time>2021-03-29T10:22:32Z</time>
      </trkpt>
      <trkpt lat="43.82339" lon="5.34908">
        <ele>423.6</ele>
        <time>2021-03-29T10:23:05Z</time>
      </trkpt>
      <trkpt lat="43.82337" lon="5.34909">
        <ele>423.6</ele>
        <time>2021-03-29T10:23:36Z</time>
      </trkpt>
      <trkpt lat="43.82337" lon="5.34914">
        <ele>423.6</ele>
        <time>2021-03-29T10:24:07Z</time>
      </trkpt>
      <trkpt lat="43.82336" lon="5.34914">
        <ele>423.6</ele>
        <time>2021-03-29T10:24:36Z</time>
      </trkpt>
      <trkpt lat="43.82335" lon="5.34912">
        <ele>423.6</ele>
        <time>2021-03-29T10:25:12Z</time>
      </trkpt>
      <trkpt lat="43.82336" lon="5.34911">
        <ele>423.6</ele>
        <time>2021-03-29T10:25:43Z</time>
      </trkpt>
      <trkpt lat="43.82334" lon="5.3491">
        <ele>423.6</ele>
        <time>2021-03-29T10:26:16Z</time>
      </trkpt>
      <trkpt lat="43.82336" lon="5.3491">
        <ele>423.6</ele>
        <time>2021-03-29T10:26:56Z</time>
      </trkpt>
      <trkpt lat="43.82337" lon="5.34912">
        <ele>423.6</ele>
        <time>2021-03-29T10:27:31Z</time>
      </trkpt>
      <trkpt lat="43.82336" lon="5.34913">
        <ele>423.6</ele>
        <time>2021-03-29T10:28:31Z</time>
      </trkpt>
      <trkpt lat="43.82338" lon="5.34914">
        <ele>423.6</ele>
        <time>2021-03-29T10:29:04Z</time>
      </trkpt>
      <trkpt lat="43.82337" lon="5.34914">
        <ele>423.6</ele>
        <time>2021-03-29T10:29:37Z</time>
      </trkpt>
      <trkpt lat="43.82335" lon="5.34913">
        <ele>423.6</ele>
        <time>2021-03-29T10:30:53Z</time>
      </trkpt>
      <trkpt lat="43.82334" lon="5.34911">
        <ele>423.6</ele>
        <time>2021-03-29T10:31:30Z</time>
      </trkpt>
      <trkpt lat="43.82335" lon="5.34909">
        <ele>423.6</ele>
        <time>2021-03-29T10:32:05Z</time>
      </trkpt>
      <trkpt lat="43.82332" lon="5.34911">
        <ele>423.6</ele>
        <time>2021-03-29T10:32:38Z</time>
      </trkpt>
      <trkpt lat="43.82332" lon="5.34914">
        <ele>423.6</ele>
        <time>2021-03-29T10:33:22Z</time>
      </trkpt>
      <trkpt lat="43.82335" lon="5.34913">
        <ele>423.6</ele>
        <time>2021-03-29T10:34:54Z</time>
      </trkpt>
      <trkpt lat="43.82333" lon="5.34915">
        <ele>423.6</ele>
        <time>2021-03-29T10:36:23Z</time>
      </trkpt>
      <trkpt lat="43.82334" lon="5.34913">
        <ele>423.6</ele>
        <time>2021-03-29T10:37:24Z</time>
      </trkpt>
      <trkpt lat="43.82336" lon="5.3491">
        <ele>423.6</ele>
        <time>2021-03-29T10:38:07Z</time>
      </trkpt>
      <trkpt lat="43.82338" lon="5.34911">
        <ele>423.6</ele>
        <time>2021-03-29T10:39:16Z</time>
      </trkpt>
      <trkpt lat="43.82336" lon="5.34914">
        <ele>423.6</ele>
        <time>2021-03-29T10:40:40Z</time>
      </trkpt>
      <trkpt lat="43.82332" lon="5.34915">
        <ele>423.6</ele>
        <time>2021-03-29T10:41:52Z</time>
      </trkpt>
      <trkpt lat="43.82332" lon="5.34914">
        <ele>423.6</ele>
        <time>2021-03-29T10:43:08Z</time>
      </trkpt>
      <trkpt lat="43.82334" lon="5.34917">
        <ele>423.6</ele>
        <time>2021-03-29T10:44:02Z</time>
      </trkpt>
      <trkpt lat="43.82336" lon="5.34916">
        <ele>423.6</ele>
        <time>2021-03-29T10:44:50Z</time>
      </trkpt>
      <trkpt lat="43.82338" lon="5.34917">
        <ele>423.6</ele>
        <time>2021-03-29T10:45:17Z</time>
      </trkpt>
      <trkpt lat="43.82341" lon="5.34914">
        <ele>423.6</ele>
        <time>2021-03-29T10:45:53Z</time>
      </trkpt>
      <trkpt lat="43.8234" lon="5.34914">
        <ele>423.6</ele>
        <time>2021-03-29T10:46:16Z</time>
      </trkpt>
      <trkpt lat="43.82337" lon="5.34913">
        <ele>423.6</ele>
        <time>2021-03-29T10:46:51Z</time>
      </trkpt>
      <trkpt lat="43.82337" lon="5.34913">
        <ele>423.6</ele>
        <time>2021-03-29T10:47:24Z</time>
      </trkpt>
      <trkpt lat="43.82335" lon="5.34912">
        <ele>423.6</ele>
        <time>2021-03-29T10:47:55Z</time>
      </trkpt>
      <trkpt lat="43.82335" lon="5.34908">
        <ele>423.6</ele>
        <time>2021-03-29T10:48:27Z</time>
      </trkpt>
      <trkpt lat="43.82335" lon="5.34911">
        <ele>423.6</ele>
        <time>2021-03-29T10:48:54Z</time>
      </trkpt>
      <trkpt lat="43.82336" lon="5.34908">
        <ele>423.6</ele>
        <time>2021-03-29T10:49:18Z</time>
      </trkpt>
      <trkpt lat="43.82337" lon="5.34917">
        <ele>423.6</ele>
        <time>2021-03-29T10:49:45Z</time>
      </trkpt>
      <trkpt lat="43.8234" lon="5.34915">
        <ele>423.6</ele>
        <time>2021-03-29T10:50:00Z</time>
      </trkpt>
      <trkpt lat="43.82342" lon="5.34913">
        <ele>423.6</ele>
        <time>2021-03-29T10:50:24Z</time>
      </trkpt>
      <trkpt lat="43.82341" lon="5.34913">
        <ele>423.6</ele>
        <time>2021-03-29T10:50:59Z</time>
      </trkpt>
      <trkpt lat="43.82339" lon="5.34914">
        <ele>423.6</ele>
        <time>2021-03-29T10:51:25Z</time>
      </trkpt>
      <trkpt lat="43.82338" lon="5.34912">
        <ele>423.6</ele>
        <time>2021-03-29T10:51:57Z</time>
      </trkpt>
      <trkpt lat="43.82337" lon="5.34908">
        <ele>423.6</ele>
        <time>2021-03-29T10:52:21Z</time>
      </trkpt>
      <trkpt lat="43.82336" lon="5.34905">
        <ele>423.6</ele>
        <time>2021-03-29T10:52:28Z</time>
      </trkpt>
      <trkpt lat="43.82328" lon="5.34892">
        <ele>423.6</ele>
        <time>2021-03-29T10:52:42Z</time>
      </trkpt>
      <trkpt lat="43.82316" lon="5.3487">
        <ele>423.6</ele>
        <time>2021-03-29T10:53:02Z</time>
      </trkpt>
      <trkpt lat="43.82308" lon="5.34856">
        <ele>428.89</ele>
        <time>2021-03-29T10:53:15Z</time>
      </trkpt>
      <trkpt lat="43.82308" lon="5.34855">
        <ele>427.92</ele>
        <time>2021-03-29T10:53:16Z</time>
      </trkpt>
      <trkpt lat="43.82307" lon="5.34853">
        <ele>426.96</ele>
        <time>2021-03-29T10:53:18Z</time>
      </trkpt>
      <trkpt lat="43.82296" lon="5.34834">
        <ele>427.44</ele>
        <time>2021-03-29T10:53:36Z</time>
      </trkpt>
      <trkpt lat="43.82293" lon="5.34815">
        <ele>429.37</ele>
        <time>2021-03-29T10:53:53Z</time>
      </trkpt>
      <trkpt lat="43.82284" lon="5.34789">
        <ele>429.85</ele>
        <time>2021-03-29T10:54:15Z</time>
      </trkpt>
      <trkpt lat="43.82279" lon="5.34773">
        <ele>430.33</ele>
        <time>2021-03-29T10:54:30Z</time>
      </trkpt>
      <trkpt lat="43.82274" lon="5.34744">
        <ele>431.29</ele>
        <time>2021-03-29T10:54:52Z</time>
      </trkpt>
      <trkpt lat="43.82273" lon="5.34727">
        <ele>431.29</ele>
        <time>2021-03-29T10:55:06Z</time>
      </trkpt>
      <trkpt lat="43.82267" lon="5.34704">
        <ele>431.77</ele>
        <time>2021-03-29T10:55:21Z</time>
      </trkpt>
      <trkpt lat="43.82263" lon="5.34689">
        <ele>431.77</ele>
        <time>2021-03-29T10:55:31Z</time>
      </trkpt>
      <trkpt lat="43.82259" lon="5.34677">
        <ele>432.25</ele>
        <time>2021-03-29T10:55:41Z</time>
      </trkpt>
      <trkpt lat="43.82255" lon="5.34665">
        <ele>433.21</ele>
        <time>2021-03-29T10:55:52Z</time>
      </trkpt>
      <trkpt lat="43.82247" lon="5.34634">
        <ele>434.17</ele>
        <time>2021-03-29T10:56:12Z</time>
      </trkpt>
      <trkpt lat="43.82241" lon="5.34619">
        <ele>434.65</ele>
        <time>2021-03-29T10:56:26Z</time>
      </trkpt>
      <trkpt lat="43.82241" lon="5.34616">
        <ele>434.65</ele>
        <time>2021-03-29T10:56:28Z</time>
      </trkpt>
      <trkpt lat="43.8224" lon="5.34607">
        <ele>434.65</ele>
        <time>2021-03-29T10:56:34Z</time>
      </trkpt>
      <trkpt lat="43.82241" lon="5.34583">
        <ele>435.13</ele>
        <time>2021-03-29T10:56:48Z</time>
      </trkpt>
      <trkpt lat="43.82241" lon="5.34581">
        <ele>435.13</ele>
        <time>2021-03-29T10:56:49Z</time>
      </trkpt>
      <trkpt lat="43.82243" lon="5.34566">
        <ele>434.65</ele>
        <time>2021-03-29T10:56:58Z</time>
      </trkpt>
      <trkpt lat="43.82242" lon="5.3456">
        <ele>434.65</ele>
        <time>2021-03-29T10:57:02Z</time>
      </trkpt>
      <trkpt lat="43.82244" lon="5.34545">
        <ele>435.13</ele>
        <time>2021-03-29T10:57:12Z</time>
      </trkpt>
      <trkpt lat="43.82244" lon="5.34543">
        <ele>435.13</ele>
        <time>2021-03-29T10:57:14Z</time>
      </trkpt>
      <trkpt lat="43.82243" lon="5.34526">
        <ele>435.61</ele>
        <time>2021-03-29T10:57:25Z</time>
      </trkpt>
      <trkpt lat="43.82241" lon="5.34521">
        <ele>435.61</ele>
        <time>2021-03-29T10:57:28Z</time>
      </trkpt>
      <trkpt lat="43.8224" lon="5.34514">
        <ele>435.61</ele>
        <time>2021-03-29T10:57:32Z</time>
      </trkpt>
      <trkpt lat="43.82237" lon="5.34493">
        <ele>436.58</ele>
        <time>2021-03-29T10:57:45Z</time>
      </trkpt>
      <trkpt lat="43.82237" lon="5.34492">
        <ele>436.58</ele>
        <time>2021-03-29T10:57:46Z</time>
      </trkpt>
      <trkpt lat="43.82238" lon="5.34469">
        <ele>436.58</ele>
        <time>2021-03-29T10:58:00Z</time>
      </trkpt>
      <trkpt lat="43.8224" lon="5.34453">
        <ele>436.58</ele>
        <time>2021-03-29T10:58:13Z</time>
      </trkpt>
      <trkpt lat="43.82238" lon="5.34413">
        <ele>438.02</ele>
        <time>2021-03-29T10:58:36Z</time>
      </trkpt>
      <trkpt lat="43.82239" lon="5.34399">
        <ele>438.02</ele>
        <time>2021-03-29T10:58:47Z</time>
      </trkpt>
      <trkpt lat="43.82242" lon="5.34382">
        <ele>438.02</ele>
        <time>2021-03-29T10:58:59Z</time>
      </trkpt>
      <trkpt lat="43.82243" lon="5.34377">
        <ele>438.02</ele>
        <time>2021-03-29T10:59:03Z</time>
      </trkpt>
      <trkpt lat="43.82239" lon="5.34353">
        <ele>438.5</ele>
        <time>2021-03-29T10:59:14Z</time>
      </trkpt>
      <trkpt lat="43.82239" lon="5.34329">
        <ele>438.98</ele>
        <time>2021-03-29T10:59:29Z</time>
      </trkpt>
      <trkpt lat="43.82242" lon="5.34306">
        <ele>440.42</ele>
        <time>2021-03-29T10:59:45Z</time>
      </trkpt>
      <trkpt lat="43.82246" lon="5.34288">
        <ele>440.9</ele>
        <time>2021-03-29T10:59:58Z</time>
      </trkpt>
      <trkpt lat="43.82248" lon="5.34265">
        <ele>442.34</ele>
        <time>2021-03-29T11:00:11Z</time>
      </trkpt>
      <trkpt lat="43.82255" lon="5.34255">
        <ele>443.79</ele>
        <time>2021-03-29T11:00:31Z</time>
      </trkpt>
      <trkpt lat="43.82263" lon="5.34241">
        <ele>445.23</ele>
        <time>2021-03-29T11:00:49Z</time>
      </trkpt>
      <trkpt lat="43.82264" lon="5.3424">
        <ele>445.23</ele>
        <time>2021-03-29T11:00:50Z</time>
      </trkpt>
      <trkpt lat="43.82267" lon="5.34234">
        <ele>445.23</ele>
        <time>2021-03-29T11:00:56Z</time>
      </trkpt>
      <trkpt lat="43.82272" lon="5.3422">
        <ele>446.67</ele>
        <time>2021-03-29T11:01:08Z</time>
      </trkpt>
      <trkpt lat="43.82277" lon="5.34204">
        <ele>448.59</ele>
        <time>2021-03-29T11:01:21Z</time>
      </trkpt>
      <trkpt lat="43.82278" lon="5.34203">
        <ele>448.59</ele>
        <time>2021-03-29T11:01:22Z</time>
      </trkpt>
      <trkpt lat="43.82281" lon="5.342">
        <ele>449.07</ele>
        <time>2021-03-29T11:01:26Z</time>
      </trkpt>
      <trkpt lat="43.82282" lon="5.34199">
        <ele>449.55</ele>
        <time>2021-03-29T11:01:27Z</time>
      </trkpt>
      <trkpt lat="43.82286" lon="5.34188">
        <ele>451</ele>
        <time>2021-03-29T11:01:37Z</time>
      </trkpt>
      <trkpt lat="43.82287" lon="5.34171">
        <ele>452.44</ele>
        <time>2021-03-29T11:01:49Z</time>
      </trkpt>
      <trkpt lat="43.82301" lon="5.34157">
        <ele>454.84</ele>
        <time>2021-03-29T11:02:03Z</time>
      </trkpt>
      <trkpt lat="43.82303" lon="5.34152">
        <ele>455.32</ele>
        <time>2021-03-29T11:02:07Z</time>
      </trkpt>
      <trkpt lat="43.82303" lon="5.34152">
        <ele>455.32</ele>
        <time>2021-03-29T11:02:08Z</time>
      </trkpt>
      <trkpt lat="43.82307" lon="5.34146">
        <ele>455.8</ele>
        <time>2021-03-29T11:02:13Z</time>
      </trkpt>
      <trkpt lat="43.82312" lon="5.34129">
        <ele>458.21</ele>
        <time>2021-03-29T11:02:28Z</time>
      </trkpt>
      <trkpt lat="43.82317" lon="5.34112">
        <ele>459.17</ele>
        <time>2021-03-29T11:02:43Z</time>
      </trkpt>
      <trkpt lat="43.82333" lon="5.34095">
        <ele>460.61</ele>
        <time>2021-03-29T11:03:03Z</time>
      </trkpt>
      <trkpt lat="43.82339" lon="5.34083">
        <ele>460.13</ele>
        <time>2021-03-29T11:03:17Z</time>
      </trkpt>
      <trkpt lat="43.82348" lon="5.3407">
        <ele>460.13</ele>
        <time>2021-03-29T11:03:31Z</time>
      </trkpt>
      <trkpt lat="43.82349" lon="5.34069">
        <ele>460.13</ele>
        <time>2021-03-29T11:03:32Z</time>
      </trkpt>
      <trkpt lat="43.8235" lon="5.34068">
        <ele>460.61</ele>
        <time>2021-03-29T11:03:33Z</time>
      </trkpt>
      <trkpt lat="43.82351" lon="5.34067">
        <ele>460.61</ele>
        <time>2021-03-29T11:03:34Z</time>
      </trkpt>
      <trkpt lat="43.82361" lon="5.34053">
        <ele>459.17</ele>
        <time>2021-03-29T11:03:51Z</time>
      </trkpt>
      <trkpt lat="43.82375" lon="5.34033">
        <ele>457.24</ele>
        <time>2021-03-29T11:04:12Z</time>
      </trkpt>
      <trkpt lat="43.82381" lon="5.34022">
        <ele>456.28</ele>
        <time>2021-03-29T11:04:20Z</time>
      </trkpt>
      <trkpt lat="43.82389" lon="5.34001">
        <ele>453.4</ele>
        <time>2021-03-29T11:04:35Z</time>
      </trkpt>
      <trkpt lat="43.82393" lon="5.33982">
        <ele>451</ele>
        <time>2021-03-29T11:04:49Z</time>
      </trkpt>
      <trkpt lat="43.82402" lon="5.33965">
        <ele>449.55</ele>
        <time>2021-03-29T11:05:02Z</time>
      </trkpt>
      <trkpt lat="43.82411" lon="5.33949">
        <ele>447.15</ele>
        <time>2021-03-29T11:05:13Z</time>
      </trkpt>
      <trkpt lat="43.82412" lon="5.33947">
        <ele>446.19</ele>
        <time>2021-03-29T11:05:15Z</time>
      </trkpt>
      <trkpt lat="43.82412" lon="5.33945">
        <ele>446.19</ele>
        <time>2021-03-29T11:05:16Z</time>
      </trkpt>
      <trkpt lat="43.82412" lon="5.33944">
        <ele>445.71</ele>
        <time>2021-03-29T11:05:17Z</time>
      </trkpt>
      <trkpt lat="43.82414" lon="5.3394">
        <ele>445.23</ele>
        <time>2021-03-29T11:05:20Z</time>
      </trkpt>
      <trkpt lat="43.8242" lon="5.33924">
        <ele>443.31</ele>
        <time>2021-03-29T11:05:34Z</time>
      </trkpt>
      <trkpt lat="43.82424" lon="5.33917">
        <ele>442.82</ele>
        <time>2021-03-29T11:05:39Z</time>
      </trkpt>
      <trkpt lat="43.82425" lon="5.33915">
        <ele>442.82</ele>
        <time>2021-03-29T11:05:40Z</time>
      </trkpt>
      <trkpt lat="43.82426" lon="5.33914">
        <ele>442.82</ele>
        <time>2021-03-29T11:05:41Z</time>
      </trkpt>
      <trkpt lat="43.82435" lon="5.33886">
        <ele>439.94</ele>
        <time>2021-03-29T11:06:00Z</time>
      </trkpt>
      <trkpt lat="43.82448" lon="5.33865">
        <ele>438.02</ele>
        <time>2021-03-29T11:06:18Z</time>
      </trkpt>
      <trkpt lat="43.82459" lon="5.33846">
        <ele>436.58</ele>
        <time>2021-03-29T11:06:34Z</time>
      </trkpt>
      <trkpt lat="43.82476" lon="5.3382">
        <ele>435.61</ele>
        <time>2021-03-29T11:06:54Z</time>
      </trkpt>
      <trkpt lat="43.82476" lon="5.33819">
        <ele>435.61</ele>
        <time>2021-03-29T11:06:55Z</time>
      </trkpt>
      <trkpt lat="43.82485" lon="5.33803">
        <ele>435.13</ele>
        <time>2021-03-29T11:07:08Z</time>
      </trkpt>
      <trkpt lat="43.82487" lon="5.33781">
        <ele>435.13</ele>
        <time>2021-03-29T11:07:22Z</time>
      </trkpt>
      <trkpt lat="43.82493" lon="5.33757">
        <ele>434.17</ele>
        <time>2021-03-29T11:07:37Z</time>
      </trkpt>
      <trkpt lat="43.82501" lon="5.33735">
        <ele>434.65</ele>
        <time>2021-03-29T11:07:53Z</time>
      </trkpt>
      <trkpt lat="43.82504" lon="5.33719">
        <ele>434.65</ele>
        <time>2021-03-29T11:08:04Z</time>
      </trkpt>
      <trkpt lat="43.82511" lon="5.33693">
        <ele>434.17</ele>
        <time>2021-03-29T11:08:22Z</time>
      </trkpt>
      <trkpt lat="43.82515" lon="5.3367">
        <ele>434.17</ele>
        <time>2021-03-29T11:08:39Z</time>
      </trkpt>
      <trkpt lat="43.82525" lon="5.33639">
        <ele>433.69</ele>
        <time>2021-03-29T11:08:58Z</time>
      </trkpt>
      <trkpt lat="43.82533" lon="5.33612">
        <ele>434.17</ele>
        <time>2021-03-29T11:09:13Z</time>
      </trkpt>
      <trkpt lat="43.8254" lon="5.33595">
        <ele>434.17</ele>
        <time>2021-03-29T11:09:29Z</time>
      </trkpt>
      <trkpt lat="43.82551" lon="5.33568">
        <ele>434.17</ele>
        <time>2021-03-29T11:09:49Z</time>
      </trkpt>
      <trkpt lat="43.82559" lon="5.33542">
        <ele>433.21</ele>
        <time>2021-03-29T11:10:05Z</time>
      </trkpt>
      <trkpt lat="43.8256" lon="5.33538">
        <ele>433.21</ele>
        <time>2021-03-29T11:10:08Z</time>
      </trkpt>
      <trkpt lat="43.82561" lon="5.33537">
        <ele>433.21</ele>
        <time>2021-03-29T11:10:09Z</time>
      </trkpt>
      <trkpt lat="43.82561" lon="5.33535">
        <ele>433.21</ele>
        <time>2021-03-29T11:10:10Z</time>
      </trkpt>
      <trkpt lat="43.82562" lon="5.33533">
        <ele>433.21</ele>
        <time>2021-03-29T11:10:11Z</time>
      </trkpt>
      <trkpt lat="43.82562" lon="5.33531">
        <ele>433.21</ele>
        <time>2021-03-29T11:10:12Z</time>
      </trkpt>
      <trkpt lat="43.82563" lon="5.33529">
        <ele>433.21</ele>
        <time>2021-03-29T11:10:13Z</time>
      </trkpt>
      <trkpt lat="43.82567" lon="5.33519">
        <ele>433.21</ele>
        <time>2021-03-29T11:10:19Z</time>
      </trkpt>
      <trkpt lat="43.82568" lon="5.33518">
        <ele>433.21</ele>
        <time>2021-03-29T11:10:20Z</time>
      </trkpt>
      <trkpt lat="43.82569" lon="5.33517">
        <ele>433.21</ele>
        <time>2021-03-29T11:10:21Z</time>
      </trkpt>
      <trkpt lat="43.82569" lon="5.33515">
        <ele>433.21</ele>
        <time>2021-03-29T11:10:22Z</time>
      </trkpt>
      <trkpt lat="43.8257" lon="5.33514">
        <ele>433.21</ele>
        <time>2021-03-29T11:10:23Z</time>
      </trkpt>
      <trkpt lat="43.82571" lon="5.33512">
        <ele>433.21</ele>
        <time>2021-03-29T11:10:24Z</time>
      </trkpt>
      <trkpt lat="43.82582" lon="5.33486">
        <ele>433.21</ele>
        <time>2021-03-29T11:10:42Z</time>
      </trkpt>
      <trkpt lat="43.82586" lon="5.33465">
        <ele>432.73</ele>
        <time>2021-03-29T11:10:56Z</time>
      </trkpt>
      <trkpt lat="43.82587" lon="5.33457">
        <ele>432.73</ele>
        <time>2021-03-29T11:11:01Z</time>
      </trkpt>
      <trkpt lat="43.8259" lon="5.33423">
        <ele>433.21</ele>
        <time>2021-03-29T11:11:21Z</time>
      </trkpt>
      <trkpt lat="43.8259" lon="5.3342">
        <ele>433.21</ele>
        <time>2021-03-29T11:11:23Z</time>
      </trkpt>
      <trkpt lat="43.8259" lon="5.33418">
        <ele>433.21</ele>
        <time>2021-03-29T11:11:24Z</time>
      </trkpt>
      <trkpt lat="43.8259" lon="5.33412">
        <ele>433.21</ele>
        <time>2021-03-29T11:11:28Z</time>
      </trkpt>
      <trkpt lat="43.82589" lon="5.33408">
        <ele>433.21</ele>
        <time>2021-03-29T11:11:30Z</time>
      </trkpt>
      <trkpt lat="43.82589" lon="5.33407">
        <ele>433.69</ele>
        <time>2021-03-29T11:11:31Z</time>
      </trkpt>
      <trkpt lat="43.82588" lon="5.33405">
        <ele>433.69</ele>
        <time>2021-03-29T11:11:32Z</time>
      </trkpt>
      <trkpt lat="43.82588" lon="5.33404">
        <ele>433.69</ele>
        <time>2021-03-29T11:11:33Z</time>
      </trkpt>
      <trkpt lat="43.82587" lon="5.33402">
        <ele>433.69</ele>
        <time>2021-03-29T11:11:34Z</time>
      </trkpt>
      <trkpt lat="43.82577" lon="5.33377">
        <ele>434.17</ele>
        <time>2021-03-29T11:11:52Z</time>
      </trkpt>
      <trkpt lat="43.82566" lon="5.33354">
        <ele>436.1</ele>
        <time>2021-03-29T11:12:10Z</time>
      </trkpt>
      <trkpt lat="43.8256" lon="5.33341">
        <ele>437.54</ele>
        <time>2021-03-29T11:12:21Z</time>
      </trkpt>
      <trkpt lat="43.82558" lon="5.33337">
        <ele>437.54</ele>
        <time>2021-03-29T11:12:24Z</time>
      </trkpt>
      <trkpt lat="43.82546" lon="5.33316">
        <ele>439.46</ele>
        <time>2021-03-29T11:12:42Z</time>
      </trkpt>
      <trkpt lat="43.82539" lon="5.33297">
        <ele>441.38</ele>
        <time>2021-03-29T11:12:57Z</time>
      </trkpt>
      <trkpt lat="43.82537" lon="5.33275">
        <ele>443.79</ele>
        <time>2021-03-29T11:13:10Z</time>
      </trkpt>
      <trkpt lat="43.82538" lon="5.33245">
        <ele>446.19</ele>
        <time>2021-03-29T11:13:29Z</time>
      </trkpt>
      <trkpt lat="43.82542" lon="5.33218">
        <ele>447.15</ele>
        <time>2021-03-29T11:13:47Z</time>
      </trkpt>
      <trkpt lat="43.82542" lon="5.33208">
        <ele>447.63</ele>
        <time>2021-03-29T11:13:58Z</time>
      </trkpt>
      <trkpt lat="43.82539" lon="5.33182">
        <ele>447.15</ele>
        <time>2021-03-29T11:14:15Z</time>
      </trkpt>
      <trkpt lat="43.82537" lon="5.33176">
        <ele>447.15</ele>
        <time>2021-03-29T11:14:41Z</time>
      </trkpt>
      <trkpt lat="43.82533" lon="5.33168">
        <ele>447.15</ele>
        <time>2021-03-29T11:14:50Z</time>
      </trkpt>
      <trkpt lat="43.82532" lon="5.33167">
        <ele>447.15</ele>
        <time>2021-03-29T11:14:51Z</time>
      </trkpt>
      <trkpt lat="43.82531" lon="5.33165">
        <ele>447.15</ele>
        <time>2021-03-29T11:14:52Z</time>
      </trkpt>
      <trkpt lat="43.82528" lon="5.33159">
        <ele>446.67</ele>
        <time>2021-03-29T11:14:57Z</time>
      </trkpt>
      <trkpt lat="43.82529" lon="5.33157">
        <ele>446.67</ele>
        <time>2021-03-29T11:14:58Z</time>
      </trkpt>
      <trkpt lat="43.82529" lon="5.33154">
        <ele>446.19</ele>
        <time>2021-03-29T11:15:00Z</time>
      </trkpt>
      <trkpt lat="43.82529" lon="5.33143">
        <ele>446.19</ele>
        <time>2021-03-29T11:15:14Z</time>
      </trkpt>
      <trkpt lat="43.82527" lon="5.33127">
        <ele>446.19</ele>
        <time>2021-03-29T11:15:28Z</time>
      </trkpt>
      <trkpt lat="43.82524" lon="5.33105">
        <ele>446.19</ele>
        <time>2021-03-29T11:15:45Z</time>
      </trkpt>
      <trkpt lat="43.82521" lon="5.33091">
        <ele>446.19</ele>
        <time>2021-03-29T11:15:58Z</time>
      </trkpt>
      <trkpt lat="43.8252" lon="5.33087">
        <ele>446.19</ele>
        <time>2021-03-29T11:16:03Z</time>
      </trkpt>
      <trkpt lat="43.82511" lon="5.33059">
        <ele>446.19</ele>
        <time>2021-03-29T11:16:18Z</time>
      </trkpt>
      <trkpt lat="43.82496" lon="5.33042">
        <ele>445.71</ele>
        <time>2021-03-29T11:16:34Z</time>
      </trkpt>
      <trkpt lat="43.8249" lon="5.33028">
        <ele>445.23</ele>
        <time>2021-03-29T11:16:48Z</time>
      </trkpt>
      <trkpt lat="43.82489" lon="5.33025">
        <ele>445.23</ele>
        <time>2021-03-29T11:16:52Z</time>
      </trkpt>
      <trkpt lat="43.82479" lon="5.33003">
        <ele>445.23</ele>
        <time>2021-03-29T11:17:07Z</time>
      </trkpt>
      <trkpt lat="43.82473" lon="5.32987">
        <ele>445.23</ele>
        <time>2021-03-29T11:17:18Z</time>
      </trkpt>
      <trkpt lat="43.82465" lon="5.32967">
        <ele>445.23</ele>
        <time>2021-03-29T11:17:32Z</time>
      </trkpt>
      <trkpt lat="43.8246" lon="5.32953">
        <ele>445.23</ele>
        <time>2021-03-29T11:17:42Z</time>
      </trkpt>
      <trkpt lat="43.82451" lon="5.32935">
        <ele>444.75</ele>
        <time>2021-03-29T11:17:56Z</time>
      </trkpt>
      <trkpt lat="43.82447" lon="5.32913">
        <ele>444.27</ele>
        <time>2021-03-29T11:18:07Z</time>
      </trkpt>
      <trkpt lat="43.82437" lon="5.3289">
        <ele>443.79</ele>
        <time>2021-03-29T11:18:21Z</time>
      </trkpt>
      <trkpt lat="43.82431" lon="5.32877">
        <ele>443.31</ele>
        <time>2021-03-29T11:18:30Z</time>
      </trkpt>
      <trkpt lat="43.82422" lon="5.32853">
        <ele>442.82</ele>
        <time>2021-03-29T11:18:48Z</time>
      </trkpt>
      <trkpt lat="43.8241" lon="5.32827">
        <ele>442.82</ele>
        <time>2021-03-29T11:19:05Z</time>
      </trkpt>
      <trkpt lat="43.82404" lon="5.32807">
        <ele>442.82</ele>
        <time>2021-03-29T11:19:20Z</time>
      </trkpt>
      <trkpt lat="43.82391" lon="5.32781">
        <ele>441.38</ele>
        <time>2021-03-29T11:19:37Z</time>
      </trkpt>
      <trkpt lat="43.82388" lon="5.32769">
        <ele>440.9</ele>
        <time>2021-03-29T11:19:47Z</time>
      </trkpt>
      <trkpt lat="43.82386" lon="5.32743">
        <ele>438.02</ele>
        <time>2021-03-29T11:20:08Z</time>
      </trkpt>
      <trkpt lat="43.82381" lon="5.3274">
        <ele>437.54</ele>
        <time>2021-03-29T11:20:44Z</time>
      </trkpt>
      <trkpt lat="43.82374" lon="5.32739">
        <ele>437.54</ele>
        <time>2021-03-29T11:21:19Z</time>
      </trkpt>
      <trkpt lat="43.82381" lon="5.3274">
        <ele>438.02</ele>
        <time>2021-03-29T11:22:02Z</time>
      </trkpt>
      <trkpt lat="43.82382" lon="5.32744">
        <ele>438.02</ele>
        <time>2021-03-29T11:22:37Z</time>
      </trkpt>
      <trkpt lat="43.82385" lon="5.32729">
        <ele>438.02</ele>
        <time>2021-03-29T11:23:00Z</time>
      </trkpt>
      <trkpt lat="43.82385" lon="5.32715">
        <ele>437.54</ele>
        <time>2021-03-29T11:23:09Z</time>
      </trkpt>
      <trkpt lat="43.82385" lon="5.32713">
        <ele>437.54</ele>
        <time>2021-03-29T11:23:10Z</time>
      </trkpt>
      <trkpt lat="43.82384" lon="5.32695">
        <ele>437.06</ele>
        <time>2021-03-29T11:23:19Z</time>
      </trkpt>
      <trkpt lat="43.82384" lon="5.3269">
        <ele>437.06</ele>
        <time>2021-03-29T11:23:22Z</time>
      </trkpt>
      <trkpt lat="43.82383" lon="5.32688">
        <ele>437.06</ele>
        <time>2021-03-29T11:23:23Z</time>
      </trkpt>
      <trkpt lat="43.82383" lon="5.32685">
        <ele>436.58</ele>
        <time>2021-03-29T11:23:24Z</time>
      </trkpt>
      <trkpt lat="43.82385" lon="5.32657">
        <ele>436.58</ele>
        <time>2021-03-29T11:23:40Z</time>
      </trkpt>
      <trkpt lat="43.82386" lon="5.32653">
        <ele>436.1</ele>
        <time>2021-03-29T11:23:43Z</time>
      </trkpt>
      <trkpt lat="43.82387" lon="5.32647">
        <ele>436.1</ele>
        <time>2021-03-29T11:23:47Z</time>
      </trkpt>
      <trkpt lat="43.82388" lon="5.32645">
        <ele>436.1</ele>
        <time>2021-03-29T11:23:48Z</time>
      </trkpt>
      <trkpt lat="43.82388" lon="5.32643">
        <ele>436.1</ele>
        <time>2021-03-29T11:23:49Z</time>
      </trkpt>
      <trkpt lat="43.82388" lon="5.32641">
        <ele>436.1</ele>
        <time>2021-03-29T11:23:50Z</time>
      </trkpt>
      <trkpt lat="43.82383" lon="5.32615">
        <ele>436.1</ele>
        <time>2021-03-29T11:24:05Z</time>
      </trkpt>
      <trkpt lat="43.82383" lon="5.32584">
        <ele>436.58</ele>
        <time>2021-03-29T11:24:22Z</time>
      </trkpt>
      <trkpt lat="43.82383" lon="5.32559">
        <ele>435.61</ele>
        <time>2021-03-29T11:24:38Z</time>
      </trkpt>
      <trkpt lat="43.82383" lon="5.32556">
        <ele>435.61</ele>
        <time>2021-03-29T11:24:40Z</time>
      </trkpt>
      <trkpt lat="43.82383" lon="5.32553">
        <ele>435.61</ele>
        <time>2021-03-29T11:24:41Z</time>
      </trkpt>
      <trkpt lat="43.82381" lon="5.32539">
        <ele>434.65</ele>
        <time>2021-03-29T11:24:50Z</time>
      </trkpt>
      <trkpt lat="43.82381" lon="5.32538">
        <ele>434.65</ele>
        <time>2021-03-29T11:24:51Z</time>
      </trkpt>
      <trkpt lat="43.8238" lon="5.32529">
        <ele>434.65</ele>
        <time>2021-03-29T11:24:56Z</time>
      </trkpt>
      <trkpt lat="43.8238" lon="5.32526">
        <ele>434.65</ele>
        <time>2021-03-29T11:24:58Z</time>
      </trkpt>
      <trkpt lat="43.8238" lon="5.32524">
        <ele>434.65</ele>
        <time>2021-03-29T11:24:59Z</time>
      </trkpt>
      <trkpt lat="43.82383" lon="5.32504">
        <ele>434.17</ele>
        <time>2021-03-29T11:25:11Z</time>
      </trkpt>
      <trkpt lat="43.82393" lon="5.32483">
        <ele>433.21</ele>
        <time>2021-03-29T11:25:26Z</time>
      </trkpt>
      <trkpt lat="43.82398" lon="5.32472">
        <ele>432.73</ele>
        <time>2021-03-29T11:25:33Z</time>
      </trkpt>
      <trkpt lat="43.82403" lon="5.3245">
        <ele>431.77</ele>
        <time>2021-03-29T11:25:47Z</time>
      </trkpt>
      <trkpt lat="43.82413" lon="5.32425">
        <ele>430.81</ele>
        <time>2021-03-29T11:26:05Z</time>
      </trkpt>
      <trkpt lat="43.8242" lon="5.32399">
        <ele>429.85</ele>
        <time>2021-03-29T11:26:22Z</time>
      </trkpt>
      <trkpt lat="43.82422" lon="5.32382">
        <ele>429.37</ele>
        <time>2021-03-29T11:26:32Z</time>
      </trkpt>
      <trkpt lat="43.82422" lon="5.3238">
        <ele>429.37</ele>
        <time>2021-03-29T11:26:33Z</time>
      </trkpt>
      <trkpt lat="43.82422" lon="5.32378">
        <ele>428.89</ele>
        <time>2021-03-29T11:26:34Z</time>
      </trkpt>
      <trkpt lat="43.82424" lon="5.32349">
        <ele>426.96</ele>
        <time>2021-03-29T11:26:50Z</time>
      </trkpt>
      <trkpt lat="43.82419" lon="5.32331">
        <ele>426.96</ele>
        <time>2021-03-29T11:27:01Z</time>
      </trkpt>
      <trkpt lat="43.82415" lon="5.3231">
        <ele>425.52</ele>
        <time>2021-03-29T11:27:16Z</time>
      </trkpt>
      <trkpt lat="43.82414" lon="5.32296">
        <ele>425.04</ele>
        <time>2021-03-29T11:27:26Z</time>
      </trkpt>
      <trkpt lat="43.82413" lon="5.32294">
        <ele>425.04</ele>
        <time>2021-03-29T11:27:27Z</time>
      </trkpt>
      <trkpt lat="43.82411" lon="5.32268">
        <ele>424.56</ele>
        <time>2021-03-29T11:27:43Z</time>
      </trkpt>
      <trkpt lat="43.82404" lon="5.32241">
        <ele>424.56</ele>
        <time>2021-03-29T11:28:02Z</time>
      </trkpt>
      <trkpt lat="43.824" lon="5.32221">
        <ele>424.56</ele>
        <time>2021-03-29T11:28:15Z</time>
      </trkpt>
      <trkpt lat="43.824" lon="5.32205">
        <ele>425.04</ele>
        <time>2021-03-29T11:28:24Z</time>
      </trkpt>
      <trkpt lat="43.82396" lon="5.32187">
        <ele>424.08</ele>
        <time>2021-03-29T11:28:35Z</time>
      </trkpt>
      <trkpt lat="43.82394" lon="5.32155">
        <ele>423.12</ele>
        <time>2021-03-29T11:28:54Z</time>
      </trkpt>
      <trkpt lat="43.82391" lon="5.32137">
        <ele>422.64</ele>
        <time>2021-03-29T11:29:05Z</time>
      </trkpt>
      <trkpt lat="43.8239" lon="5.32135">
        <ele>422.64</ele>
        <time>2021-03-29T11:29:06Z</time>
      </trkpt>
      <trkpt lat="43.82388" lon="5.32129">
        <ele>422.16</ele>
        <time>2021-03-29T11:29:10Z</time>
      </trkpt>
      <trkpt lat="43.82387" lon="5.32127">
        <ele>422.16</ele>
        <time>2021-03-29T11:29:11Z</time>
      </trkpt>
      <trkpt lat="43.82386" lon="5.32125">
        <ele>422.16</ele>
        <time>2021-03-29T11:29:12Z</time>
      </trkpt>
      <trkpt lat="43.82381" lon="5.32104">
        <ele>421.19</ele>
        <time>2021-03-29T11:29:26Z</time>
      </trkpt>
      <trkpt lat="43.82375" lon="5.32086">
        <ele>420.23</ele>
        <time>2021-03-29T11:29:39Z</time>
      </trkpt>
      <trkpt lat="43.82374" lon="5.3208">
        <ele>420.23</ele>
        <time>2021-03-29T11:29:43Z</time>
      </trkpt>
      <trkpt lat="43.82365" lon="5.32064">
        <ele>419.27</ele>
        <time>2021-03-29T11:29:55Z</time>
      </trkpt>
      <trkpt lat="43.82359" lon="5.32046">
        <ele>418.79</ele>
        <time>2021-03-29T11:30:07Z</time>
      </trkpt>
      <trkpt lat="43.82355" lon="5.32038">
        <ele>418.31</ele>
        <time>2021-03-29T11:30:13Z</time>
      </trkpt>
      <trkpt lat="43.82346" lon="5.32027">
        <ele>417.35</ele>
        <time>2021-03-29T11:30:27Z</time>
      </trkpt>
      <trkpt lat="43.82345" lon="5.32025">
        <ele>417.35</ele>
        <time>2021-03-29T11:30:28Z</time>
      </trkpt>
      <trkpt lat="43.82344" lon="5.32018">
        <ele>417.83</ele>
        <time>2021-03-29T11:30:32Z</time>
      </trkpt>
      <trkpt lat="43.82332" lon="5.32007">
        <ele>416.39</ele>
        <time>2021-03-29T11:30:46Z</time>
      </trkpt>
      <trkpt lat="43.82329" lon="5.32006">
        <ele>416.39</ele>
        <time>2021-03-29T11:30:49Z</time>
      </trkpt>
      <trkpt lat="43.82322" lon="5.31997">
        <ele>415.91</ele>
        <time>2021-03-29T11:30:58Z</time>
      </trkpt>
      <trkpt lat="43.82316" lon="5.31988">
        <ele>415.91</ele>
        <time>2021-03-29T11:31:04Z</time>
      </trkpt>
      <trkpt lat="43.82312" lon="5.31982">
        <ele>415.91</ele>
        <time>2021-03-29T11:31:08Z</time>
      </trkpt>
      <trkpt lat="43.8231" lon="5.31979">
        <ele>415.91</ele>
        <time>2021-03-29T11:31:11Z</time>
      </trkpt>
      <trkpt lat="43.82305" lon="5.31969">
        <ele>415.91</ele>
        <time>2021-03-29T11:31:21Z</time>
      </trkpt>
      <trkpt lat="43.82301" lon="5.31959">
        <ele>415.91</ele>
        <time>2021-03-29T11:31:30Z</time>
      </trkpt>
      <trkpt lat="43.82299" lon="5.31957">
        <ele>415.91</ele>
        <time>2021-03-29T11:31:32Z</time>
      </trkpt>
      <trkpt lat="43.82292" lon="5.31945">
        <ele>416.39</ele>
        <time>2021-03-29T11:31:41Z</time>
      </trkpt>
      <trkpt lat="43.82283" lon="5.3193">
        <ele>415.91</ele>
        <time>2021-03-29T11:31:53Z</time>
      </trkpt>
      <trkpt lat="43.82279" lon="5.31915">
        <ele>415.91</ele>
        <time>2021-03-29T11:32:03Z</time>
      </trkpt>
      <trkpt lat="43.82275" lon="5.31893">
        <ele>415.43</ele>
        <time>2021-03-29T11:32:23Z</time>
      </trkpt>
      <trkpt lat="43.82271" lon="5.31887">
        <ele>415.43</ele>
        <time>2021-03-29T11:32:49Z</time>
      </trkpt>
      <trkpt lat="43.82269" lon="5.31886">
        <ele>414.95</ele>
        <time>2021-03-29T11:33:18Z</time>
      </trkpt>
      <trkpt lat="43.82268" lon="5.31888">
        <ele>414.95</ele>
        <time>2021-03-29T11:33:50Z</time>
      </trkpt>
      <trkpt lat="43.82268" lon="5.31888">
        <ele>415.43</ele>
        <time>2021-03-29T11:34:25Z</time>
      </trkpt>
      <trkpt lat="43.82266" lon="5.31877">
        <ele>415.43</ele>
        <time>2021-03-29T11:34:48Z</time>
      </trkpt>
      <trkpt lat="43.82263" lon="5.31859">
        <ele>413.98</ele>
        <time>2021-03-29T11:35:00Z</time>
      </trkpt>
      <trkpt lat="43.82255" lon="5.31841">
        <ele>412.54</ele>
        <time>2021-03-29T11:35:14Z</time>
      </trkpt>
      <trkpt lat="43.82253" lon="5.31833">
        <ele>412.06</ele>
        <time>2021-03-29T11:35:19Z</time>
      </trkpt>
      <trkpt lat="43.82251" lon="5.31828">
        <ele>412.06</ele>
        <time>2021-03-29T11:35:22Z</time>
      </trkpt>
      <trkpt lat="43.82251" lon="5.31824">
        <ele>411.58</ele>
        <time>2021-03-29T11:35:25Z</time>
      </trkpt>
      <trkpt lat="43.8225" lon="5.31822">
        <ele>411.58</ele>
        <time>2021-03-29T11:35:26Z</time>
      </trkpt>
      <trkpt lat="43.8225" lon="5.31821">
        <ele>411.58</ele>
        <time>2021-03-29T11:35:27Z</time>
      </trkpt>
      <trkpt lat="43.8225" lon="5.31819">
        <ele>411.58</ele>
        <time>2021-03-29T11:35:28Z</time>
      </trkpt>
      <trkpt lat="43.8225" lon="5.31818">
        <ele>411.58</ele>
        <time>2021-03-29T11:35:29Z</time>
      </trkpt>
      <trkpt lat="43.8225" lon="5.31816">
        <ele>411.58</ele>
        <time>2021-03-29T11:35:30Z</time>
      </trkpt>
      <trkpt lat="43.82249" lon="5.31815">
        <ele>411.1</ele>
        <time>2021-03-29T11:35:31Z</time>
      </trkpt>
      <trkpt lat="43.8225" lon="5.31809">
        <ele>411.1</ele>
        <time>2021-03-29T11:35:34Z</time>
      </trkpt>
      <trkpt lat="43.82252" lon="5.31806">
        <ele>411.1</ele>
        <time>2021-03-29T11:35:35Z</time>
      </trkpt>
      <trkpt lat="43.82255" lon="5.31791">
        <ele>410.14</ele>
        <time>2021-03-29T11:35:45Z</time>
      </trkpt>
      <trkpt lat="43.82255" lon="5.3179">
        <ele>410.14</ele>
        <time>2021-03-29T11:35:46Z</time>
      </trkpt>
      <trkpt lat="43.82254" lon="5.31789">
        <ele>409.66</ele>
        <time>2021-03-29T11:35:47Z</time>
      </trkpt>
      <trkpt lat="43.82254" lon="5.31787">
        <ele>409.66</ele>
        <time>2021-03-29T11:35:48Z</time>
      </trkpt>
      <trkpt lat="43.82254" lon="5.31785">
        <ele>409.18</ele>
        <time>2021-03-29T11:35:49Z</time>
      </trkpt>
      <trkpt lat="43.82254" lon="5.31784">
        <ele>409.18</ele>
        <time>2021-03-29T11:35:50Z</time>
      </trkpt>
      <trkpt lat="43.82254" lon="5.31782">
        <ele>409.18</ele>
        <time>2021-03-29T11:35:51Z</time>
      </trkpt>
      <trkpt lat="43.82255" lon="5.31767">
        <ele>407.74</ele>
        <time>2021-03-29T11:36:03Z</time>
      </trkpt>
      <trkpt lat="43.82258" lon="5.31738">
        <ele>406.29</ele>
        <time>2021-03-29T11:36:19Z</time>
      </trkpt>
      <trkpt lat="43.82259" lon="5.31737">
        <ele>406.29</ele>
        <time>2021-03-29T11:36:20Z</time>
      </trkpt>
      <trkpt lat="43.82259" lon="5.31734">
        <ele>405.81</ele>
        <time>2021-03-29T11:36:22Z</time>
      </trkpt>
      <trkpt lat="43.82255" lon="5.31717">
        <ele>404.37</ele>
        <time>2021-03-29T11:36:33Z</time>
      </trkpt>
      <trkpt lat="43.82251" lon="5.31697">
        <ele>403.41</ele>
        <time>2021-03-29T11:36:49Z</time>
      </trkpt>
      <trkpt lat="43.82253" lon="5.31691">
        <ele>401.97</ele>
        <time>2021-03-29T11:37:09Z</time>
      </trkpt>
      <trkpt lat="43.82257" lon="5.31695">
        <ele>402.93</ele>
        <time>2021-03-29T11:37:38Z</time>
      </trkpt>
      <trkpt lat="43.82252" lon="5.31694">
        <ele>402.45</ele>
        <time>2021-03-29T11:38:08Z</time>
      </trkpt>
      <trkpt lat="43.82245" lon="5.31693">
        <ele>402.93</ele>
        <time>2021-03-29T11:38:32Z</time>
      </trkpt>
      <trkpt lat="43.82237" lon="5.31706">
        <ele>403.41</ele>
        <time>2021-03-29T11:38:49Z</time>
      </trkpt>
      <trkpt lat="43.82236" lon="5.31707">
        <ele>403.41</ele>
        <time>2021-03-29T11:38:50Z</time>
      </trkpt>
      <trkpt lat="43.82235" lon="5.31708">
        <ele>403.41</ele>
        <time>2021-03-29T11:38:51Z</time>
      </trkpt>
      <trkpt lat="43.82221" lon="5.31727">
        <ele>403.41</ele>
        <time>2021-03-29T11:39:08Z</time>
      </trkpt>
      <trkpt lat="43.82211" lon="5.31743">
        <ele>404.37</ele>
        <time>2021-03-29T11:39:24Z</time>
      </trkpt>
      <trkpt lat="43.822" lon="5.31755">
        <ele>404.85</ele>
        <time>2021-03-29T11:39:39Z</time>
      </trkpt>
      <trkpt lat="43.82183" lon="5.31764">
        <ele>406.29</ele>
        <time>2021-03-29T11:40:00Z</time>
      </trkpt>
      <trkpt lat="43.82177" lon="5.31767">
        <ele>406.77</ele>
        <time>2021-03-29T11:40:08Z</time>
      </trkpt>
      <trkpt lat="43.82155" lon="5.31771">
        <ele>408.7</ele>
        <time>2021-03-29T11:40:26Z</time>
      </trkpt>
      <trkpt lat="43.82147" lon="5.31773">
        <ele>409.18</ele>
        <time>2021-03-29T11:40:31Z</time>
      </trkpt>
      <trkpt lat="43.82142" lon="5.31773">
        <ele>410.14</ele>
        <time>2021-03-29T11:40:47Z</time>
      </trkpt>
      <trkpt lat="43.82133" lon="5.3177">
        <ele>409.66</ele>
        <time>2021-03-29T11:41:09Z</time>
      </trkpt>
      <trkpt lat="43.82132" lon="5.31771">
        <ele>410.14</ele>
        <time>2021-03-29T11:41:38Z</time>
      </trkpt>
      <trkpt lat="43.82131" lon="5.31776">
        <ele>410.62</ele>
        <time>2021-03-29T11:41:58Z</time>
      </trkpt>
      <trkpt lat="43.82132" lon="5.31776">
        <ele>408.22</ele>
        <time>2021-03-29T11:42:21Z</time>
      </trkpt>
      <trkpt lat="43.82132" lon="5.31775">
        <ele>411.58</ele>
        <time>2021-03-29T11:42:26Z</time>
      </trkpt>
      <trkpt lat="43.82132" lon="5.31775">
        <ele>412.06</ele>
        <time>2021-03-29T11:42:28Z</time>
      </trkpt>
      <trkpt lat="43.82132" lon="5.31779">
        <ele>410.62</ele>
        <time>2021-03-29T11:42:57Z</time>
      </trkpt>
      <trkpt lat="43.82132" lon="5.31777">
        <ele>410.62</ele>
        <time>2021-03-29T11:43:25Z</time>
      </trkpt>
      <trkpt lat="43.82125" lon="5.31781">
        <ele>410.14</ele>
        <time>2021-03-29T11:43:42Z</time>
      </trkpt>
      <trkpt lat="43.82116" lon="5.31783">
        <ele>410.14</ele>
        <time>2021-03-29T11:43:52Z</time>
      </trkpt>
      <trkpt lat="43.82114" lon="5.31783">
        <ele>410.14</ele>
        <time>2021-03-29T11:43:54Z</time>
      </trkpt>
      <trkpt lat="43.82113" lon="5.31783">
        <ele>410.14</ele>
        <time>2021-03-29T11:43:55Z</time>
      </trkpt>
      <trkpt lat="43.821" lon="5.31785">
        <ele>411.1</ele>
        <time>2021-03-29T11:44:07Z</time>
      </trkpt>
      <trkpt lat="43.82097" lon="5.31786">
        <ele>411.1</ele>
        <time>2021-03-29T11:44:10Z</time>
      </trkpt>
      <trkpt lat="43.82096" lon="5.31786">
        <ele>411.1</ele>
        <time>2021-03-29T11:44:11Z</time>
      </trkpt>
      <trkpt lat="43.82084" lon="5.3179">
        <ele>411.58</ele>
        <time>2021-03-29T11:44:27Z</time>
      </trkpt>
      <trkpt lat="43.82082" lon="5.31789">
        <ele>412.54</ele>
        <time>2021-03-29T11:44:44Z</time>
      </trkpt>
      <trkpt lat="43.82066" lon="5.31787">
        <ele>412.06</ele>
        <time>2021-03-29T11:44:59Z</time>
      </trkpt>
      <trkpt lat="43.82049" lon="5.31774">
        <ele>412.54</ele>
        <time>2021-03-29T11:45:17Z</time>
      </trkpt>
      <trkpt lat="43.82039" lon="5.31772">
        <ele>412.06</ele>
        <time>2021-03-29T11:45:27Z</time>
      </trkpt>
      <trkpt lat="43.82021" lon="5.31772">
        <ele>412.06</ele>
        <time>2021-03-29T11:45:43Z</time>
      </trkpt>
      <trkpt lat="43.82004" lon="5.3177">
        <ele>412.54</ele>
        <time>2021-03-29T11:46:00Z</time>
      </trkpt>
      <trkpt lat="43.81991" lon="5.31768">
        <ele>412.54</ele>
        <time>2021-03-29T11:46:12Z</time>
      </trkpt>
      <trkpt lat="43.81967" lon="5.31771">
        <ele>412.54</ele>
        <time>2021-03-29T11:46:33Z</time>
      </trkpt>
      <trkpt lat="43.81961" lon="5.31772">
        <ele>412.06</ele>
        <time>2021-03-29T11:46:39Z</time>
      </trkpt>
      <trkpt lat="43.81958" lon="5.31773">
        <ele>412.06</ele>
        <time>2021-03-29T11:46:42Z</time>
      </trkpt>
      <trkpt lat="43.8194" lon="5.31775">
        <ele>411.58</ele>
        <time>2021-03-29T11:46:59Z</time>
      </trkpt>
      <trkpt lat="43.81923" lon="5.31773">
        <ele>410.62</ele>
        <time>2021-03-29T11:47:14Z</time>
      </trkpt>
      <trkpt lat="43.81905" lon="5.3177">
        <ele>410.14</ele>
        <time>2021-03-29T11:47:29Z</time>
      </trkpt>
      <trkpt lat="43.81889" lon="5.31773">
        <ele>409.18</ele>
        <time>2021-03-29T11:47:45Z</time>
      </trkpt>
      <trkpt lat="43.81878" lon="5.31786">
        <ele>409.66</ele>
        <time>2021-03-29T11:48:01Z</time>
      </trkpt>
      <trkpt lat="43.81862" lon="5.31802">
        <ele>408.7</ele>
        <time>2021-03-29T11:48:19Z</time>
      </trkpt>
      <trkpt lat="43.81843" lon="5.31816">
        <ele>407.74</ele>
        <time>2021-03-29T11:48:40Z</time>
      </trkpt>
      <trkpt lat="43.81824" lon="5.31826">
        <ele>407.26</ele>
        <time>2021-03-29T11:48:57Z</time>
      </trkpt>
      <trkpt lat="43.81821" lon="5.3183">
        <ele>406.77</ele>
        <time>2021-03-29T11:49:10Z</time>
      </trkpt>
      <trkpt lat="43.81817" lon="5.31832">
        <ele>406.77</ele>
        <time>2021-03-29T11:49:16Z</time>
      </trkpt>
      <trkpt lat="43.81816" lon="5.31832">
        <ele>406.77</ele>
        <time>2021-03-29T11:49:17Z</time>
      </trkpt>
      <trkpt lat="43.81803" lon="5.31836">
        <ele>406.29</ele>
        <time>2021-03-29T11:49:28Z</time>
      </trkpt>
      <trkpt lat="43.81779" lon="5.31837">
        <ele>405.81</ele>
        <time>2021-03-29T11:49:48Z</time>
      </trkpt>
      <trkpt lat="43.81762" lon="5.31834">
        <ele>404.37</ele>
        <time>2021-03-29T11:50:03Z</time>
      </trkpt>
      <trkpt lat="43.81752" lon="5.31841">
        <ele>403.41</ele>
        <time>2021-03-29T11:50:14Z</time>
      </trkpt>
      <trkpt lat="43.81751" lon="5.31843">
        <ele>403.41</ele>
        <time>2021-03-29T11:50:15Z</time>
      </trkpt>
      <trkpt lat="43.81736" lon="5.31853">
        <ele>403.89</ele>
        <time>2021-03-29T11:50:30Z</time>
      </trkpt>
      <trkpt lat="43.81716" lon="5.31862">
        <ele>403.41</ele>
        <time>2021-03-29T11:50:47Z</time>
      </trkpt>
      <trkpt lat="43.81701" lon="5.3187">
        <ele>403.41</ele>
        <time>2021-03-29T11:51:00Z</time>
      </trkpt>
      <trkpt lat="43.817" lon="5.31871">
        <ele>403.41</ele>
        <time>2021-03-29T11:51:01Z</time>
      </trkpt>
      <trkpt lat="43.81698" lon="5.31875">
        <ele>403.41</ele>
        <time>2021-03-29T11:51:04Z</time>
      </trkpt>
      <trkpt lat="43.81697" lon="5.31876">
        <ele>403.41</ele>
        <time>2021-03-29T11:51:05Z</time>
      </trkpt>
      <trkpt lat="43.81696" lon="5.31878">
        <ele>403.41</ele>
        <time>2021-03-29T11:51:06Z</time>
      </trkpt>
      <trkpt lat="43.81689" lon="5.31897">
        <ele>403.41</ele>
        <time>2021-03-29T11:51:22Z</time>
      </trkpt>
      <trkpt lat="43.8167" lon="5.31913">
        <ele>403.41</ele>
        <time>2021-03-29T11:51:38Z</time>
      </trkpt>
      <trkpt lat="43.81653" lon="5.319">
        <ele>403.89</ele>
        <time>2021-03-29T11:51:56Z</time>
      </trkpt>
      <trkpt lat="43.81644" lon="5.31888">
        <ele>404.37</ele>
        <time>2021-03-29T11:52:07Z</time>
      </trkpt>
      <trkpt lat="43.81642" lon="5.31887">
        <ele>404.37</ele>
        <time>2021-03-29T11:52:08Z</time>
      </trkpt>
      <trkpt lat="43.81639" lon="5.31885">
        <ele>404.37</ele>
        <time>2021-03-29T11:52:10Z</time>
      </trkpt>
      <trkpt lat="43.81621" lon="5.31883">
        <ele>405.33</ele>
        <time>2021-03-29T11:52:28Z</time>
      </trkpt>
      <trkpt lat="43.81607" lon="5.31887">
        <ele>406.77</ele>
        <time>2021-03-29T11:52:48Z</time>
      </trkpt>
      <trkpt lat="43.81595" lon="5.31887">
        <ele>407.74</ele>
        <time>2021-03-29T11:53:00Z</time>
      </trkpt>
      <trkpt lat="43.81584" lon="5.31885">
        <ele>408.22</ele>
        <time>2021-03-29T11:53:09Z</time>
      </trkpt>
      <trkpt lat="43.8156" lon="5.31878">
        <ele>409.66</ele>
        <time>2021-03-29T11:53:31Z</time>
      </trkpt>
      <trkpt lat="43.81538" lon="5.31869">
        <ele>411.1</ele>
        <time>2021-03-29T11:53:49Z</time>
      </trkpt>
      <trkpt lat="43.81523" lon="5.3187">
        <ele>412.06</ele>
        <time>2021-03-29T11:54:02Z</time>
      </trkpt>
      <trkpt lat="43.81498" lon="5.31861">
        <ele>413.02</ele>
        <time>2021-03-29T11:54:25Z</time>
      </trkpt>
      <trkpt lat="43.8149" lon="5.3186">
        <ele>413.98</ele>
        <time>2021-03-29T11:54:32Z</time>
      </trkpt>
      <trkpt lat="43.8148" lon="5.31847">
        <ele>414.95</ele>
        <time>2021-03-29T11:54:47Z</time>
      </trkpt>
      <trkpt lat="43.81478" lon="5.31844">
        <ele>414.95</ele>
        <time>2021-03-29T11:55:16Z</time>
      </trkpt>
      <trkpt lat="43.81479" lon="5.31845">
        <ele>414.95</ele>
        <time>2021-03-29T11:55:45Z</time>
      </trkpt>
      <trkpt lat="43.8149" lon="5.31836">
        <ele>414.95</ele>
        <time>2021-03-29T11:56:07Z</time>
      </trkpt>
      <trkpt lat="43.81497" lon="5.31821">
        <ele>413.5</ele>
        <time>2021-03-29T11:56:20Z</time>
      </trkpt>
      <trkpt lat="43.81498" lon="5.3182">
        <ele>413.5</ele>
        <time>2021-03-29T11:56:21Z</time>
      </trkpt>
      <trkpt lat="43.81513" lon="5.31801">
        <ele>412.06</ele>
        <time>2021-03-29T11:56:38Z</time>
      </trkpt>
      <trkpt lat="43.81523" lon="5.31792">
        <ele>410.62</ele>
        <time>2021-03-29T11:56:49Z</time>
      </trkpt>
      <trkpt lat="43.81529" lon="5.31785">
        <ele>410.14</ele>
        <time>2021-03-29T11:56:56Z</time>
      </trkpt>
      <trkpt lat="43.8154" lon="5.31765">
        <ele>408.7</ele>
        <time>2021-03-29T11:57:12Z</time>
      </trkpt>
      <trkpt lat="43.8154" lon="5.31763">
        <ele>408.7</ele>
        <time>2021-03-29T11:57:13Z</time>
      </trkpt>
      <trkpt lat="43.81541" lon="5.31761">
        <ele>408.7</ele>
        <time>2021-03-29T11:57:14Z</time>
      </trkpt>
      <trkpt lat="43.81556" lon="5.31739">
        <ele>406.77</ele>
        <time>2021-03-29T11:57:33Z</time>
      </trkpt>
      <trkpt lat="43.81558" lon="5.31735">
        <ele>406.77</ele>
        <time>2021-03-29T11:57:36Z</time>
      </trkpt>
      <trkpt lat="43.81571" lon="5.31714">
        <ele>405.81</ele>
        <time>2021-03-29T11:57:52Z</time>
      </trkpt>
      <trkpt lat="43.81582" lon="5.31692">
        <ele>404.37</ele>
        <time>2021-03-29T11:58:09Z</time>
      </trkpt>
      <trkpt lat="43.81591" lon="5.31675">
        <ele>403.89</ele>
        <time>2021-03-29T11:58:21Z</time>
      </trkpt>
      <trkpt lat="43.81595" lon="5.31665">
        <ele>403.41</ele>
        <time>2021-03-29T11:58:29Z</time>
      </trkpt>
      <trkpt lat="43.81601" lon="5.31643">
        <ele>401.97</ele>
        <time>2021-03-29T11:58:49Z</time>
      </trkpt>
      <trkpt lat="43.81614" lon="5.31616">
        <ele>399.57</ele>
        <time>2021-03-29T11:59:12Z</time>
      </trkpt>
      <trkpt lat="43.81622" lon="5.31603">
        <ele>397.16</ele>
        <time>2021-03-29T11:59:27Z</time>
      </trkpt>
      <trkpt lat="43.8163" lon="5.31587">
        <ele>394.28</ele>
        <time>2021-03-29T11:59:45Z</time>
      </trkpt>
      <trkpt lat="43.81636" lon="5.31571">
        <ele>390.91</ele>
        <time>2021-03-29T12:00:03Z</time>
      </trkpt>
      <trkpt lat="43.81647" lon="5.3156">
        <ele>388.03</ele>
        <time>2021-03-29T12:00:19Z</time>
      </trkpt>
      <trkpt lat="43.81661" lon="5.31544">
        <ele>385.63</ele>
        <time>2021-03-29T12:00:36Z</time>
      </trkpt>
      <trkpt lat="43.81672" lon="5.31532">
        <ele>383.22</ele>
        <time>2021-03-29T12:00:58Z</time>
      </trkpt>
      <trkpt lat="43.81685" lon="5.31519">
        <ele>379.86</ele>
        <time>2021-03-29T12:01:14Z</time>
      </trkpt>
      <trkpt lat="43.81699" lon="5.31503">
        <ele>376.97</ele>
        <time>2021-03-29T12:01:30Z</time>
      </trkpt>
      <trkpt lat="43.81707" lon="5.31494">
        <ele>373.61</ele>
        <time>2021-03-29T12:01:46Z</time>
      </trkpt>
      <trkpt lat="43.81717" lon="5.31479">
        <ele>371.21</ele>
        <time>2021-03-29T12:02:01Z</time>
      </trkpt>
      <trkpt lat="43.81727" lon="5.31458">
        <ele>367.84</ele>
        <time>2021-03-29T12:02:22Z</time>
      </trkpt>
      <trkpt lat="43.81732" lon="5.31442">
        <ele>364.96</ele>
        <time>2021-03-29T12:02:37Z</time>
      </trkpt>
      <trkpt lat="43.81743" lon="5.31441">
        <ele>362.07</ele>
        <time>2021-03-29T12:02:51Z</time>
      </trkpt>
      <trkpt lat="43.81744" lon="5.31437">
        <ele>360.63</ele>
        <time>2021-03-29T12:03:08Z</time>
      </trkpt>
      <trkpt lat="43.81744" lon="5.31433">
        <ele>361.11</ele>
        <time>2021-03-29T12:03:30Z</time>
      </trkpt>
      <trkpt lat="43.81746" lon="5.31427">
        <ele>361.11</ele>
        <time>2021-03-29T12:04:17Z</time>
      </trkpt>
      <trkpt lat="43.81749" lon="5.31423">
        <ele>360.63</ele>
        <time>2021-03-29T12:04:45Z</time>
      </trkpt>
      <trkpt lat="43.81754" lon="5.3142">
        <ele>359.67</ele>
        <time>2021-03-29T12:04:51Z</time>
      </trkpt>
      <trkpt lat="43.81755" lon="5.3142">
        <ele>359.67</ele>
        <time>2021-03-29T12:04:52Z</time>
      </trkpt>
      <trkpt lat="43.81763" lon="5.31414">
        <ele>356.79</ele>
        <time>2021-03-29T12:05:05Z</time>
      </trkpt>
      <trkpt lat="43.81767" lon="5.314">
        <ele>354.86</ele>
        <time>2021-03-29T12:05:18Z</time>
      </trkpt>
      <trkpt lat="43.81778" lon="5.3138">
        <ele>352.94</ele>
        <time>2021-03-29T12:05:31Z</time>
      </trkpt>
      <trkpt lat="43.81779" lon="5.31379">
        <ele>352.94</ele>
        <time>2021-03-29T12:05:32Z</time>
      </trkpt>
      <trkpt lat="43.81783" lon="5.31375">
        <ele>351.98</ele>
        <time>2021-03-29T12:05:36Z</time>
      </trkpt>
      <trkpt lat="43.81791" lon="5.31363">
        <ele>350.54</ele>
        <time>2021-03-29T12:05:47Z</time>
      </trkpt>
      <trkpt lat="43.81802" lon="5.31343">
        <ele>348.13</ele>
        <time>2021-03-29T12:06:05Z</time>
      </trkpt>
      <trkpt lat="43.81811" lon="5.3132">
        <ele>345.73</ele>
        <time>2021-03-29T12:06:22Z</time>
      </trkpt>
      <trkpt lat="43.8182" lon="5.31304">
        <ele>344.29</ele>
        <time>2021-03-29T12:06:35Z</time>
      </trkpt>
      <trkpt lat="43.81828" lon="5.31283">
        <ele>342.37</ele>
        <time>2021-03-29T12:06:50Z</time>
      </trkpt>
      <trkpt lat="43.81836" lon="5.31259">
        <ele>339.96</ele>
        <time>2021-03-29T12:07:07Z</time>
      </trkpt>
      <trkpt lat="43.81841" lon="5.31249">
        <ele>339</ele>
        <time>2021-03-29T12:07:13Z</time>
      </trkpt>
      <trkpt lat="43.81844" lon="5.31243">
        <ele>338.52</ele>
        <time>2021-03-29T12:07:17Z</time>
      </trkpt>
      <trkpt lat="43.81851" lon="5.31233">
        <ele>337.56</ele>
        <time>2021-03-29T12:07:27Z</time>
      </trkpt>
      <trkpt lat="43.81852" lon="5.31232">
        <ele>337.56</ele>
        <time>2021-03-29T12:07:28Z</time>
      </trkpt>
      <trkpt lat="43.81853" lon="5.31231">
        <ele>337.56</ele>
        <time>2021-03-29T12:07:29Z</time>
      </trkpt>
      <trkpt lat="43.81854" lon="5.3123">
        <ele>337.56</ele>
        <time>2021-03-29T12:07:30Z</time>
      </trkpt>
      <trkpt lat="43.8187" lon="5.31213">
        <ele>336.6</ele>
        <time>2021-03-29T12:07:47Z</time>
      </trkpt>
      <trkpt lat="43.81877" lon="5.31207">
        <ele>336.12</ele>
        <time>2021-03-29T12:07:52Z</time>
      </trkpt>
      <trkpt lat="43.81878" lon="5.31206">
        <ele>336.12</ele>
        <time>2021-03-29T12:07:53Z</time>
      </trkpt>
      <trkpt lat="43.81879" lon="5.31205">
        <ele>336.12</ele>
        <time>2021-03-29T12:07:54Z</time>
      </trkpt>
      <trkpt lat="43.81885" lon="5.3119">
        <ele>334.68</ele>
        <time>2021-03-29T12:08:07Z</time>
      </trkpt>
      <trkpt lat="43.81891" lon="5.31173">
        <ele>333.23</ele>
        <time>2021-03-29T12:08:19Z</time>
      </trkpt>
      <trkpt lat="43.81891" lon="5.31172">
        <ele>333.23</ele>
        <time>2021-03-29T12:08:20Z</time>
      </trkpt>
      <trkpt lat="43.81899" lon="5.31155">
        <ele>331.79</ele>
        <time>2021-03-29T12:08:33Z</time>
      </trkpt>
      <trkpt lat="43.81905" lon="5.31142">
        <ele>331.31</ele>
        <time>2021-03-29T12:08:43Z</time>
      </trkpt>
      <trkpt lat="43.81908" lon="5.31138">
        <ele>331.31</ele>
        <time>2021-03-29T12:08:47Z</time>
      </trkpt>
      <trkpt lat="43.81915" lon="5.3113">
        <ele>330.83</ele>
        <time>2021-03-29T12:08:55Z</time>
      </trkpt>
      <trkpt lat="43.81921" lon="5.31119">
        <ele>329.87</ele>
        <time>2021-03-29T12:09:10Z</time>
      </trkpt>
      <trkpt lat="43.81932" lon="5.31095">
        <ele>328.91</ele>
        <time>2021-03-29T12:09:29Z</time>
      </trkpt>
      <trkpt lat="43.81937" lon="5.31085">
        <ele>328.43</ele>
        <time>2021-03-29T12:09:36Z</time>
      </trkpt>
      <trkpt lat="43.81938" lon="5.31083">
        <ele>328.43</ele>
        <time>2021-03-29T12:09:37Z</time>
      </trkpt>
      <trkpt lat="43.81939" lon="5.31082">
        <ele>327.95</ele>
        <time>2021-03-29T12:09:38Z</time>
      </trkpt>
      <trkpt lat="43.81942" lon="5.31077">
        <ele>326.99</ele>
        <time>2021-03-29T12:09:42Z</time>
      </trkpt>
      <trkpt lat="43.81944" lon="5.31076">
        <ele>326.99</ele>
        <time>2021-03-29T12:09:43Z</time>
      </trkpt>
      <trkpt lat="43.81945" lon="5.31075">
        <ele>326.99</ele>
        <time>2021-03-29T12:09:44Z</time>
      </trkpt>
      <trkpt lat="43.81946" lon="5.31072">
        <ele>326.5</ele>
        <time>2021-03-29T12:09:46Z</time>
      </trkpt>
      <trkpt lat="43.81947" lon="5.31071">
        <ele>326.5</ele>
        <time>2021-03-29T12:09:47Z</time>
      </trkpt>
      <trkpt lat="43.81948" lon="5.3107">
        <ele>326.5</ele>
        <time>2021-03-29T12:09:48Z</time>
      </trkpt>
      <trkpt lat="43.81949" lon="5.31069">
        <ele>326.5</ele>
        <time>2021-03-29T12:09:49Z</time>
      </trkpt>
      <trkpt lat="43.8195" lon="5.31069">
        <ele>326.5</ele>
        <time>2021-03-29T12:09:50Z</time>
      </trkpt>
      <trkpt lat="43.81957" lon="5.31051">
        <ele>325.54</ele>
        <time>2021-03-29T12:10:04Z</time>
      </trkpt>
      <trkpt lat="43.81963" lon="5.31035">
        <ele>324.58</ele>
        <time>2021-03-29T12:10:18Z</time>
      </trkpt>
      <trkpt lat="43.81965" lon="5.31034">
        <ele>324.58</ele>
        <time>2021-03-29T12:10:19Z</time>
      </trkpt>
      <trkpt lat="43.81965" lon="5.31033">
        <ele>324.58</ele>
        <time>2021-03-29T12:10:20Z</time>
      </trkpt>
      <trkpt lat="43.81967" lon="5.3103">
        <ele>324.1</ele>
        <time>2021-03-29T12:10:22Z</time>
      </trkpt>
      <trkpt lat="43.81973" lon="5.31022">
        <ele>323.62</ele>
        <time>2021-03-29T12:10:29Z</time>
      </trkpt>
    </trkseg>
  </trk>
</gpx>